BAW17R EGLL-KJFK
Flight info
| Callsign | BAW17R |
|---|---|
| Flight time | 6h 59m |
| Altitude | 38000 |
| Route | CPT5J CPT L9 BUCGO DCT FELCA DCT OFSOX DCT BANBA DCT TOBOR/M082F380 DCT 5230N02000W 5130N03000W 5030N04000W 4930N05000W DCT IBERG/N0484F380 N364A TUSKY DCT PLYMM PARCH4 |
| Aircraft | B772/H-V/N |
Departure
| Time | 2026-05-04 19:57 |
|---|---|
| Airport | London Heathrow Airport (EGLL) |
Arrival
| Time | 2026-05-05 02:56 |
|---|---|
| Airport | John F. Kennedy International Airport (KJFK) |
| Time | Latitude | Longitude | Altitude | Speed | Heading |
|---|---|---|---|---|---|
| 2026-05-04 19:18 | 51.46847 | -0.48029 | 91 ft | 0 kts | 269° |
| 2026-05-04 19:48 | 51.46847 | -0.48012 | 94 ft | 4 kts | 268° |
| 2026-05-04 19:48 | 51.46849 | -0.47972 | 93 ft | 4 kts | 263° |
| 2026-05-04 19:48 | 51.46853 | -0.47932 | 91 ft | 4 kts | 255° |
| 2026-05-04 19:48 | 51.46862 | -0.47894 | 92 ft | 4 kts | 237° |
| 2026-05-04 19:49 | 51.46877 | -0.47870 | 92 ft | 4 kts | 188° |
| 2026-05-04 19:49 | 51.46881 | -0.47868 | 91 ft | 0 kts | 180° |
| 2026-05-04 19:52 | 51.46861 | -0.47868 | 92 ft | 5 kts | 180° |
| 2026-05-04 19:52 | 51.46825 | -0.47868 | 93 ft | 5 kts | 179° |
| 2026-05-04 19:52 | 51.46783 | -0.47867 | 90 ft | 8 kts | 179° |
| 2026-05-04 19:53 | 51.46715 | -0.47866 | 92 ft | 12 kts | 179° |
| 2026-05-04 19:53 | 51.46657 | -0.47905 | 95 ft | 7 kts | 246° |
| 2026-05-04 19:53 | 51.46653 | -0.47986 | 93 ft | 7 kts | 271° |
| 2026-05-04 19:53 | 51.46654 | -0.48067 | 92 ft | 7 kts | 270° |
| 2026-05-04 19:54 | 51.46653 | -0.48148 | 91 ft | 7 kts | 269° |
| 2026-05-04 19:54 | 51.46653 | -0.48229 | 91 ft | 7 kts | 270° |
| 2026-05-04 19:54 | 51.46653 | -0.48310 | 91 ft | 7 kts | 270° |
| 2026-05-04 19:54 | 51.46653 | -0.48395 | 92 ft | 10 kts | 269° |
| 2026-05-04 19:55 | 51.46652 | -0.48534 | 91 ft | 13 kts | 269° |
| 2026-05-04 19:55 | 51.46652 | -0.48655 | 91 ft | 8 kts | 270° |
| 2026-05-04 19:55 | 51.46639 | -0.48736 | 95 ft | 7 kts | 223° |
| 2026-05-04 19:55 | 51.46593 | -0.48770 | 94 ft | 7 kts | 200° |
| 2026-05-04 19:56 | 51.46542 | -0.48786 | 92 ft | 10 kts | 176° |
| 2026-05-04 19:56 | 51.46478 | -0.48644 | 93 ft | 25 kts | 92° |
| 2026-05-04 19:56 | 51.46480 | -0.48166 | 92 ft | 75 kts | 90° |
| 2026-05-04 19:56 | 51.46483 | -0.46940 | 96 ft | 142 kts | 90° |
| 2026-05-04 19:57 | 51.46488 | -0.45174 | 445 ft | 164 kts | 88° |
| 2026-05-04 19:57 | 51.46482 | -0.43338 | 1286 ft | 164 kts | 86° |
| 2026-05-04 19:57 | 51.46489 | -0.41517 | 2076 ft | 169 kts | 92° |
| 2026-05-04 19:57 | 51.46139 | -0.39546 | 2314 ft | 201 kts | 116° |
| 2026-05-04 19:58 | 51.45158 | -0.37776 | 2553 ft | 227 kts | 143° |
| 2026-05-04 19:58 | 51.43634 | -0.36776 | 2827 ft | 253 kts | 170° |
| 2026-05-04 19:58 | 51.41858 | -0.37052 | 3385 ft | 263 kts | 200° |
| 2026-05-04 19:58 | 51.40345 | -0.38699 | 4022 ft | 269 kts | 230° |
| 2026-05-04 19:59 | 51.39551 | -0.41362 | 4761 ft | 266 kts | 263° |
| 2026-05-04 19:59 | 51.39674 | -0.44270 | 5460 ft | 263 kts | 285° |
| 2026-05-04 19:59 | 51.40156 | -0.47130 | 5938 ft | 268 kts | 285° |
| 2026-05-04 19:59 | 51.40613 | -0.50045 | 6457 ft | 271 kts | 283° |
| 2026-05-04 20:00 | 51.41036 | -0.52989 | 7083 ft | 273 kts | 282° |
| 2026-05-04 20:00 | 51.41435 | -0.55966 | 7728 ft | 274 kts | 281° |
| 2026-05-04 20:00 | 51.41817 | -0.58977 | 8319 ft | 279 kts | 281° |
| 2026-05-04 20:00 | 51.42193 | -0.62036 | 8960 ft | 280 kts | 280° |
| 2026-05-04 20:01 | 51.42559 | -0.65108 | 9592 ft | 282 kts | 280° |
| 2026-05-04 20:01 | 51.42923 | -0.68223 | 10090 ft | 286 kts | 279° |
| 2026-05-04 20:01 | 51.43294 | -0.71436 | 10301 ft | 302 kts | 279° |
| 2026-05-04 20:01 | 51.43687 | -0.74839 | 10438 ft | 320 kts | 280° |
| 2026-05-04 20:02 | 51.44116 | -0.78398 | 10790 ft | 331 kts | 280° |
| 2026-05-04 20:02 | 51.44567 | -0.82060 | 11306 ft | 339 kts | 281° |
| 2026-05-04 20:02 | 51.45024 | -0.85794 | 12007 ft | 343 kts | 281° |
| 2026-05-04 20:02 | 51.45480 | -0.89573 | 12770 ft | 348 kts | 280° |
| 2026-05-04 20:03 | 51.45923 | -0.93416 | 13498 ft | 354 kts | 280° |
| 2026-05-04 20:03 | 51.46369 | -0.97333 | 14234 ft | 358 kts | 280° |
| 2026-05-04 20:03 | 51.46817 | -1.01276 | 14962 ft | 361 kts | 280° |
| 2026-05-04 20:03 | 51.47275 | -1.05259 | 15703 ft | 364 kts | 280° |
| 2026-05-04 20:04 | 51.47740 | -1.09272 | 16403 ft | 368 kts | 280° |
| 2026-05-04 20:04 | 51.48208 | -1.13331 | 17074 ft | 373 kts | 279° |
| 2026-05-04 20:04 | 51.48679 | -1.17439 | 17754 ft | 376 kts | 279° |
| 2026-05-04 20:04 | 51.49375 | -1.21463 | 18225 ft | 379 kts | 296° |
| 2026-05-04 20:05 | 51.50956 | -1.24878 | 18683 ft | 384 kts | 316° |
| 2026-05-04 20:05 | 51.52967 | -1.27773 | 19025 ft | 393 kts | 317° |
| 2026-05-04 20:05 | 51.54993 | -1.30738 | 19608 ft | 396 kts | 316° |
| 2026-05-04 20:05 | 51.57012 | -1.33763 | 20235 ft | 396 kts | 316° |
| 2026-05-04 20:06 | 51.59001 | -1.36817 | 20885 ft | 396 kts | 313° |
| 2026-05-04 20:06 | 51.60792 | -1.40209 | 21409 ft | 400 kts | 305° |
| 2026-05-04 20:06 | 51.62339 | -1.43947 | 21887 ft | 403 kts | 298° |
| 2026-05-04 20:06 | 51.63654 | -1.47937 | 22472 ft | 404 kts | 295° |
| 2026-05-04 20:07 | 51.64945 | -1.51957 | 23047 ft | 406 kts | 295° |
| 2026-05-04 20:07 | 51.66262 | -1.56010 | 23554 ft | 410 kts | 295° |
| 2026-05-04 20:07 | 51.67602 | -1.60091 | 23967 ft | 414 kts | 295° |
| 2026-05-04 20:07 | 51.68936 | -1.64212 | 24410 ft | 416 kts | 293° |
| 2026-05-04 20:08 | 51.69999 | -1.68546 | 24838 ft | 416 kts | 285° |
| 2026-05-04 20:08 | 51.70727 | -1.73060 | 25272 ft | 417 kts | 278° |
| 2026-05-04 20:08 | 51.71121 | -1.77684 | 25702 ft | 417 kts | 273° |
| 2026-05-04 20:08 | 51.71415 | -1.82357 | 26123 ft | 420 kts | 273° |
| 2026-05-04 20:09 | 51.71732 | -1.87052 | 26554 ft | 423 kts | 274° |
| 2026-05-04 20:09 | 51.72065 | -1.91783 | 26979 ft | 426 kts | 274° |
| 2026-05-04 20:09 | 51.72405 | -1.96547 | 27441 ft | 428 kts | 274° |
| 2026-05-04 20:09 | 51.72745 | -2.01328 | 27894 ft | 430 kts | 273° |
| 2026-05-04 20:10 | 51.73085 | -2.06135 | 28298 ft | 433 kts | 273° |
| 2026-05-04 20:10 | 51.73423 | -2.10980 | 28694 ft | 437 kts | 273° |
| 2026-05-04 20:10 | 51.73762 | -2.15869 | 29085 ft | 440 kts | 273° |
| 2026-05-04 20:10 | 51.74104 | -2.20783 | 29496 ft | 442 kts | 273° |
| 2026-05-04 20:11 | 51.74446 | -2.25732 | 29896 ft | 445 kts | 273° |
| 2026-05-04 20:11 | 51.74789 | -2.30709 | 30240 ft | 448 kts | 273° |
| 2026-05-04 20:11 | 51.75129 | -2.35657 | 30557 ft | 451 kts | 273° |
| 2026-05-04 20:11 | 51.75477 | -2.40769 | 30869 ft | 454 kts | 273° |
| 2026-05-04 20:12 | 51.75816 | -2.45780 | 31141 ft | 457 kts | 274° |
| 2026-05-04 20:12 | 51.76160 | -2.50910 | 31399 ft | 461 kts | 274° |
| 2026-05-04 20:12 | 51.76500 | -2.56059 | 31720 ft | 463 kts | 274° |
| 2026-05-04 20:12 | 51.76823 | -2.61235 | 32055 ft | 464 kts | 274° |
| 2026-05-04 20:13 | 51.77147 | -2.66431 | 32338 ft | 467 kts | 274° |
| 2026-05-04 20:13 | 51.77482 | -2.71658 | 32598 ft | 470 kts | 274° |
| 2026-05-04 20:13 | 51.77821 | -2.76917 | 32843 ft | 472 kts | 275° |
| 2026-05-04 20:13 | 51.78160 | -2.82202 | 33106 ft | 474 kts | 275° |
| 2026-05-04 20:14 | 51.78499 | -2.87508 | 33356 ft | 476 kts | 275° |
| 2026-05-04 20:14 | 51.78836 | -2.92842 | 33595 ft | 478 kts | 275° |
| 2026-05-04 20:14 | 51.79171 | -2.98198 | 33814 ft | 480 kts | 275° |
| 2026-05-04 20:14 | 51.79504 | -3.03575 | 34087 ft | 481 kts | 275° |
| 2026-05-04 20:15 | 51.79835 | -3.08947 | 34351 ft | 481 kts | 275° |
| 2026-05-04 20:15 | 51.80162 | -3.14316 | 34624 ft | 480 kts | 275° |
| 2026-05-04 20:15 | 51.80487 | -3.19679 | 34915 ft | 479 kts | 275° |
| 2026-05-04 20:15 | 51.80808 | -3.25033 | 35161 ft | 479 kts | 275° |
| 2026-05-04 20:16 | 51.81128 | -3.30400 | 35401 ft | 480 kts | 275° |
| 2026-05-04 20:16 | 51.81446 | -3.35770 | 35641 ft | 480 kts | 275° |
| 2026-05-04 20:16 | 51.81761 | -3.41135 | 35911 ft | 479 kts | 275° |
| 2026-05-04 20:16 | 51.82074 | -3.46496 | 36163 ft | 479 kts | 275° |
| 2026-05-04 20:17 | 51.82386 | -3.51858 | 36395 ft | 479 kts | 276° |
| 2026-05-04 20:17 | 51.82852 | -3.57192 | 36608 ft | 479 kts | 281° |
| 2026-05-04 20:17 | 51.83528 | -3.62463 | 36848 ft | 479 kts | 282° |
| 2026-05-04 20:17 | 51.84232 | -3.67726 | 37085 ft | 479 kts | 282° |
| 2026-05-04 20:18 | 51.84938 | -3.72981 | 37341 ft | 478 kts | 282° |
| 2026-05-04 20:18 | 51.85637 | -3.78236 | 37534 ft | 478 kts | 282° |
| 2026-05-04 20:18 | 51.86325 | -3.83501 | 37720 ft | 479 kts | 282° |
| 2026-05-04 20:18 | 51.87007 | -3.88780 | 37916 ft | 479 kts | 282° |
| 2026-05-04 20:19 | 51.87681 | -3.94064 | 38024 ft | 481 kts | 282° |
| 2026-05-04 20:19 | 51.89027 | -4.04707 | 38044 ft | 484 kts | 282° |
| 2026-05-04 20:20 | 51.90364 | -4.15367 | 38037 ft | 483 kts | 282° |
| 2026-05-04 20:20 | 51.91690 | -4.26004 | 38046 ft | 481 kts | 281° |
| 2026-05-04 20:21 | 51.92995 | -4.36555 | 38051 ft | 480 kts | 281° |
| 2026-05-04 20:21 | 51.94943 | -4.52460 | 38053 ft | 480 kts | 281° |
| 2026-05-04 20:22 | 51.96230 | -4.63077 | 38051 ft | 480 kts | 282° |
| 2026-05-04 20:22 | 51.97508 | -4.73705 | 38054 ft | 481 kts | 282° |
| 2026-05-04 20:23 | 51.98782 | -4.84379 | 38067 ft | 483 kts | 281° |
| 2026-05-04 20:23 | 52.00048 | -4.95080 | 38064 ft | 484 kts | 282° |
| 2026-05-04 20:24 | 52.01309 | -5.05805 | 38052 ft | 485 kts | 281° |
| 2026-05-04 20:24 | 52.02436 | -5.16589 | 38069 ft | 485 kts | 275° |
| 2026-05-04 20:25 | 52.02443 | -5.27514 | 38058 ft | 485 kts | 264° |
| 2026-05-04 20:25 | 52.01645 | -5.38375 | 38074 ft | 484 kts | 263° |
| 2026-05-04 20:26 | 52.00830 | -5.49228 | 38069 ft | 485 kts | 263° |
| 2026-05-04 20:26 | 52.00175 | -5.58251 | 38081 ft | 484 kts | 263° |
| 2026-05-04 20:27 | 51.99395 | -5.69110 | 38076 ft | 484 kts | 263° |
| 2026-05-04 20:27 | 51.98607 | -5.79958 | 38078 ft | 484 kts | 263° |
| 2026-05-04 20:28 | 51.97806 | -5.90806 | 38076 ft | 484 kts | 263° |
| 2026-05-04 20:28 | 51.96995 | -6.01655 | 38076 ft | 485 kts | 263° |
| 2026-05-04 20:29 | 51.96175 | -6.12513 | 38084 ft | 485 kts | 263° |
| 2026-05-04 20:29 | 51.95615 | -6.23400 | 38077 ft | 485 kts | 271° |
| 2026-05-04 20:30 | 51.96223 | -6.34243 | 38085 ft | 483 kts | 280° |
| 2026-05-04 20:30 | 51.97333 | -6.44983 | 38085 ft | 483 kts | 281° |
| 2026-05-04 20:31 | 51.98425 | -6.55646 | 38090 ft | 482 kts | 280° |
| 2026-05-04 20:31 | 51.99486 | -6.66376 | 38091 ft | 482 kts | 280° |
| 2026-05-04 20:32 | 52.00522 | -6.77106 | 38098 ft | 481 kts | 279° |
| 2026-05-04 20:32 | 52.01542 | -6.87826 | 38092 ft | 480 kts | 280° |
| 2026-05-04 20:33 | 52.02552 | -6.98533 | 38096 ft | 480 kts | 279° |
| 2026-05-04 20:33 | 52.03554 | -7.09246 | 38101 ft | 479 kts | 279° |
| 2026-05-04 20:34 | 52.04545 | -7.19951 | 38102 ft | 479 kts | 279° |
| 2026-05-04 20:34 | 52.05527 | -7.30660 | 38097 ft | 479 kts | 279° |
| 2026-05-04 20:35 | 52.06498 | -7.41366 | 38098 ft | 479 kts | 279° |
| 2026-05-04 20:35 | 52.07458 | -7.52069 | 38102 ft | 478 kts | 279° |
| 2026-05-04 20:36 | 52.08408 | -7.62765 | 38100 ft | 478 kts | 279° |
| 2026-05-04 20:36 | 52.09349 | -7.73467 | 38100 ft | 478 kts | 279° |
| 2026-05-04 20:37 | 52.10279 | -7.84163 | 38106 ft | 478 kts | 279° |
| 2026-05-04 20:37 | 52.11199 | -7.94875 | 38105 ft | 478 kts | 279° |
| 2026-05-04 20:38 | 52.12110 | -8.05590 | 38109 ft | 478 kts | 279° |
| 2026-05-04 20:38 | 52.13012 | -8.16310 | 38112 ft | 478 kts | 279° |
| 2026-05-04 20:39 | 52.13904 | -8.27040 | 38112 ft | 478 kts | 279° |
| 2026-05-04 20:39 | 52.14782 | -8.37706 | 38116 ft | 478 kts | 279° |
| 2026-05-04 20:40 | 52.15654 | -8.48437 | 38111 ft | 478 kts | 279° |
| 2026-05-04 20:40 | 52.16516 | -8.59171 | 38122 ft | 478 kts | 279° |
| 2026-05-04 20:41 | 52.17369 | -8.69915 | 38134 ft | 478 kts | 279° |
| 2026-05-04 20:41 | 52.18213 | -8.80670 | 38130 ft | 479 kts | 278° |
| 2026-05-04 20:42 | 52.19048 | -8.91429 | 38128 ft | 479 kts | 278° |
| 2026-05-04 20:42 | 52.19871 | -9.02182 | 38136 ft | 477 kts | 278° |
| 2026-05-04 20:43 | 52.20681 | -9.12893 | 38148 ft | 476 kts | 278° |
| 2026-05-04 20:43 | 52.21480 | -9.23581 | 38149 ft | 474 kts | 278° |
| 2026-05-04 20:44 | 52.22267 | -9.34247 | 38153 ft | 473 kts | 278° |
| 2026-05-04 20:44 | 52.23041 | -9.44889 | 38145 ft | 472 kts | 278° |
| 2026-05-04 20:45 | 52.23806 | -9.55517 | 38159 ft | 471 kts | 278° |
| 2026-05-04 20:45 | 52.24561 | -9.66127 | 38166 ft | 471 kts | 278° |
| 2026-05-04 20:46 | 52.25305 | -9.76734 | 38164 ft | 471 kts | 278° |
| 2026-05-04 20:46 | 52.26038 | -9.87347 | 38160 ft | 471 kts | 278° |
| 2026-05-04 20:47 | 52.26764 | -9.97976 | 38169 ft | 471 kts | 278° |
| 2026-05-04 20:47 | 52.27479 | -10.08588 | 38161 ft | 471 kts | 278° |
| 2026-05-04 20:48 | 52.28184 | -10.19213 | 38170 ft | 470 kts | 278° |
| 2026-05-04 20:48 | 52.28880 | -10.29833 | 38162 ft | 470 kts | 277° |
| 2026-05-04 20:49 | 52.29566 | -10.40455 | 38165 ft | 470 kts | 278° |
| 2026-05-04 20:49 | 52.30242 | -10.51071 | 38171 ft | 469 kts | 278° |
| 2026-05-04 20:50 | 52.30906 | -10.61663 | 38166 ft | 468 kts | 277° |
| 2026-05-04 20:50 | 52.31555 | -10.72151 | 38165 ft | 466 kts | 277° |
| 2026-05-04 20:51 | 52.32196 | -10.82675 | 38153 ft | 465 kts | 277° |
| 2026-05-04 20:51 | 52.32826 | -10.93167 | 38170 ft | 464 kts | 277° |
| 2026-05-04 20:52 | 52.33446 | -11.03645 | 38174 ft | 462 kts | 277° |
| 2026-05-04 20:52 | 52.34054 | -11.14087 | 38176 ft | 461 kts | 277° |
| 2026-05-04 20:53 | 52.34652 | -11.24510 | 38175 ft | 460 kts | 277° |
| 2026-05-04 20:53 | 52.35240 | -11.34925 | 38176 ft | 460 kts | 277° |
| 2026-05-04 20:54 | 52.35819 | -11.45342 | 38182 ft | 460 kts | 277° |
| 2026-05-04 20:54 | 52.36388 | -11.55757 | 38180 ft | 459 kts | 276° |
| 2026-05-04 20:55 | 52.36948 | -11.66164 | 38185 ft | 459 kts | 276° |
| 2026-05-04 20:55 | 52.37498 | -11.76564 | 38181 ft | 459 kts | 276° |
| 2026-05-04 20:56 | 52.38038 | -11.86961 | 38183 ft | 458 kts | 276° |
| 2026-05-04 20:56 | 52.38569 | -11.97353 | 38184 ft | 458 kts | 276° |
| 2026-05-04 20:57 | 52.39091 | -12.07744 | 38185 ft | 458 kts | 276° |
| 2026-05-04 20:57 | 52.39603 | -12.18115 | 38190 ft | 456 kts | 276° |
| 2026-05-04 20:58 | 52.40103 | -12.28461 | 38196 ft | 455 kts | 276° |
| 2026-05-04 20:58 | 52.40594 | -12.38781 | 38198 ft | 454 kts | 276° |
| 2026-05-04 20:59 | 52.41075 | -12.49086 | 38201 ft | 453 kts | 275° |
| 2026-05-04 20:59 | 52.41546 | -12.59376 | 38200 ft | 453 kts | 275° |
| 2026-05-04 21:00 | 52.42005 | -12.69591 | 38200 ft | 453 kts | 275° |
| 2026-05-04 21:00 | 52.42458 | -12.79870 | 38199 ft | 453 kts | 275° |
| 2026-05-04 21:01 | 52.42902 | -12.90167 | 38208 ft | 453 kts | 275° |
| 2026-05-04 21:01 | 52.43338 | -13.00462 | 38202 ft | 453 kts | 275° |
| 2026-05-04 21:02 | 52.43765 | -13.10767 | 38209 ft | 453 kts | 275° |
| 2026-05-04 21:02 | 52.44183 | -13.21079 | 38206 ft | 453 kts | 275° |
| 2026-05-04 21:03 | 52.44592 | -13.31395 | 38206 ft | 454 kts | 275° |
| 2026-05-04 21:03 | 52.44992 | -13.41713 | 38207 ft | 454 kts | 275° |
| 2026-05-04 21:04 | 52.45383 | -13.52042 | 38209 ft | 454 kts | 275° |
| 2026-05-04 21:04 | 52.45766 | -13.62365 | 38211 ft | 454 kts | 275° |
| 2026-05-04 21:05 | 52.46139 | -13.72697 | 38218 ft | 454 kts | 274° |
| 2026-05-04 21:05 | 52.46504 | -13.83027 | 38214 ft | 454 kts | 274° |
| 2026-05-04 21:06 | 52.46859 | -13.93367 | 38218 ft | 454 kts | 274° |
| 2026-05-04 21:06 | 52.47206 | -14.03701 | 38218 ft | 454 kts | 274° |
| 2026-05-04 21:07 | 52.47543 | -14.14030 | 38221 ft | 454 kts | 274° |
| 2026-05-04 21:07 | 52.47871 | -14.24362 | 38222 ft | 453 kts | 274° |
| 2026-05-04 21:08 | 52.48190 | -14.34690 | 38227 ft | 453 kts | 274° |
| 2026-05-04 21:08 | 52.48498 | -14.44953 | 38226 ft | 453 kts | 274° |
| 2026-05-04 21:09 | 52.48800 | -14.55285 | 38231 ft | 453 kts | 274° |
| 2026-05-04 21:09 | 52.49092 | -14.65615 | 38234 ft | 453 kts | 274° |
| 2026-05-04 21:10 | 52.49375 | -14.75946 | 38232 ft | 453 kts | 274° |
| 2026-05-04 21:10 | 52.49649 | -14.86267 | 38234 ft | 453 kts | 274° |
| 2026-05-04 21:11 | 52.49916 | -14.96591 | 38238 ft | 453 kts | 274° |
| 2026-05-04 21:11 | 52.50157 | -15.06920 | 38240 ft | 453 kts | 273° |
| 2026-05-04 21:12 | 52.50358 | -15.17248 | 38233 ft | 453 kts | 273° |
| 2026-05-04 21:12 | 52.50550 | -15.27575 | 38243 ft | 453 kts | 273° |
| 2026-05-04 21:13 | 52.50736 | -15.37915 | 38242 ft | 453 kts | 273° |
| 2026-05-04 21:13 | 52.50917 | -15.48250 | 38242 ft | 453 kts | 273° |
| 2026-05-04 21:14 | 52.51088 | -15.58596 | 38248 ft | 453 kts | 273° |
| 2026-05-04 21:14 | 52.51251 | -15.68950 | 38243 ft | 454 kts | 273° |
| 2026-05-04 21:15 | 52.51404 | -15.79302 | 38251 ft | 454 kts | 273° |
| 2026-05-04 21:15 | 52.51548 | -15.89590 | 38251 ft | 454 kts | 273° |
| 2026-05-04 21:16 | 52.51684 | -15.99951 | 38256 ft | 454 kts | 272° |
| 2026-05-04 21:16 | 52.51810 | -16.10304 | 38254 ft | 454 kts | 272° |
| 2026-05-04 21:17 | 52.51927 | -16.20657 | 38256 ft | 454 kts | 272° |
| 2026-05-04 21:17 | 52.52019 | -16.29332 | 38262 ft | 453 kts | 272° |
| 2026-05-04 21:18 | 52.52119 | -16.39688 | 38264 ft | 454 kts | 272° |
| 2026-05-04 21:18 | 52.52211 | -16.50039 | 38268 ft | 454 kts | 272° |
| 2026-05-04 21:19 | 52.52294 | -16.60398 | 38269 ft | 454 kts | 272° |
| 2026-05-04 21:19 | 52.52367 | -16.70690 | 38259 ft | 454 kts | 272° |
| 2026-05-04 21:20 | 52.52432 | -16.81052 | 38273 ft | 454 kts | 272° |
| 2026-05-04 21:20 | 52.52488 | -16.91414 | 38277 ft | 454 kts | 272° |
| 2026-05-04 21:21 | 52.52534 | -17.01788 | 38276 ft | 454 kts | 272° |
| 2026-05-04 21:21 | 52.52572 | -17.12163 | 38279 ft | 454 kts | 272° |
| 2026-05-04 21:22 | 52.52600 | -17.22538 | 38268 ft | 454 kts | 272° |
| 2026-05-04 21:22 | 52.52620 | -17.32914 | 38282 ft | 454 kts | 271° |
| 2026-05-04 21:23 | 52.52630 | -17.43291 | 38288 ft | 455 kts | 271° |
| 2026-05-04 21:23 | 52.52632 | -17.53672 | 38288 ft | 455 kts | 271° |
| 2026-05-04 21:24 | 52.52624 | -17.64058 | 38292 ft | 455 kts | 271° |
| 2026-05-04 21:24 | 52.52607 | -17.74441 | 38277 ft | 455 kts | 271° |
| 2026-05-04 21:25 | 52.52581 | -17.84815 | 38294 ft | 454 kts | 271° |
| 2026-05-04 21:25 | 52.52546 | -17.95188 | 38294 ft | 454 kts | 271° |
| 2026-05-04 21:26 | 52.52502 | -18.05553 | 38303 ft | 454 kts | 271° |
| 2026-05-04 21:26 | 52.52449 | -18.15912 | 38302 ft | 454 kts | 271° |
| 2026-05-04 21:27 | 52.52387 | -18.26266 | 38301 ft | 453 kts | 271° |
| 2026-05-04 21:27 | 52.52316 | -18.36618 | 38303 ft | 453 kts | 271° |
| 2026-05-04 21:28 | 52.52236 | -18.46890 | 38316 ft | 453 kts | 271° |
| 2026-05-04 21:28 | 52.52148 | -18.57229 | 38309 ft | 453 kts | 271° |
| 2026-05-04 21:29 | 52.52049 | -18.67578 | 38320 ft | 453 kts | 271° |
| 2026-05-04 21:29 | 52.51942 | -18.77928 | 38304 ft | 453 kts | 271° |
| 2026-05-04 21:30 | 52.51826 | -18.88270 | 38325 ft | 453 kts | 271° |
| 2026-05-04 21:30 | 52.51701 | -18.98616 | 38323 ft | 454 kts | 270° |
| 2026-05-04 21:31 | 52.51496 | -19.14159 | 38331 ft | 454 kts | 270° |
| 2026-05-04 21:32 | 52.51348 | -19.24527 | 38332 ft | 454 kts | 270° |
| 2026-05-04 21:32 | 52.51191 | -19.34895 | 38330 ft | 454 kts | 270° |
| 2026-05-04 21:33 | 52.51025 | -19.45260 | 38332 ft | 454 kts | 270° |
| 2026-05-04 21:33 | 52.50850 | -19.55624 | 38338 ft | 454 kts | 270° |
| 2026-05-04 21:34 | 52.50666 | -19.65997 | 38342 ft | 454 kts | 270° |
| 2026-05-04 21:34 | 52.50473 | -19.76368 | 38344 ft | 455 kts | 270° |
| 2026-05-04 21:35 | 52.50273 | -19.86662 | 38341 ft | 454 kts | 270° |
| 2026-05-04 21:35 | 52.50063 | -19.97019 | 38346 ft | 454 kts | 270° |
| 2026-05-04 21:36 | 52.49637 | -20.07365 | 38343 ft | 455 kts | 266° |
| 2026-05-04 21:36 | 52.49027 | -20.17686 | 38351 ft | 455 kts | 266° |
| 2026-05-04 21:37 | 52.48402 | -20.28015 | 38349 ft | 455 kts | 266° |
| 2026-05-04 21:37 | 52.47785 | -20.38334 | 38357 ft | 455 kts | 266° |
| 2026-05-04 21:38 | 52.47167 | -20.48654 | 38354 ft | 454 kts | 266° |
| 2026-05-04 21:38 | 52.46542 | -20.58961 | 38356 ft | 454 kts | 266° |
| 2026-05-04 21:39 | 52.45909 | -20.69263 | 38359 ft | 454 kts | 266° |
| 2026-05-04 21:39 | 52.45266 | -20.79560 | 38357 ft | 454 kts | 266° |
| 2026-05-04 21:40 | 52.44614 | -20.89854 | 38359 ft | 454 kts | 266° |
| 2026-05-04 21:40 | 52.43955 | -21.00132 | 38362 ft | 454 kts | 266° |
| 2026-05-04 21:41 | 52.43286 | -21.10410 | 38364 ft | 454 kts | 265° |
| 2026-05-04 21:41 | 52.42607 | -21.20698 | 38369 ft | 454 kts | 265° |
| 2026-05-04 21:42 | 52.41920 | -21.30977 | 38366 ft | 454 kts | 265° |
| 2026-05-04 21:42 | 52.41224 | -21.41249 | 38371 ft | 454 kts | 265° |
| 2026-05-04 21:43 | 52.40519 | -21.51516 | 38371 ft | 454 kts | 265° |
| 2026-05-04 21:43 | 52.39805 | -21.61793 | 38378 ft | 454 kts | 265° |
| 2026-05-04 21:44 | 52.39082 | -21.72062 | 38381 ft | 454 kts | 265° |
| 2026-05-04 21:44 | 52.38349 | -21.82332 | 38382 ft | 454 kts | 265° |
| 2026-05-04 21:45 | 52.37613 | -21.92531 | 38379 ft | 454 kts | 265° |
| 2026-05-04 21:45 | 52.36858 | -22.02862 | 38382 ft | 454 kts | 265° |
| 2026-05-04 21:46 | 52.36104 | -22.13054 | 38380 ft | 454 kts | 264° |
| 2026-05-04 21:46 | 52.35336 | -22.23317 | 38399 ft | 454 kts | 264° |
| 2026-05-04 21:47 | 52.34559 | -22.33573 | 38397 ft | 454 kts | 264° |
| 2026-05-04 21:47 | 52.33773 | -22.43827 | 38384 ft | 454 kts | 264° |
| 2026-05-04 21:48 | 52.32978 | -22.54079 | 38391 ft | 455 kts | 264° |
| 2026-05-04 21:48 | 52.32175 | -22.64325 | 38397 ft | 455 kts | 264° |
| 2026-05-04 21:49 | 52.31362 | -22.74570 | 38397 ft | 454 kts | 264° |
| 2026-05-04 21:49 | 52.30541 | -22.84807 | 38389 ft | 454 kts | 264° |
| 2026-05-04 21:50 | 52.29710 | -22.95043 | 38403 ft | 454 kts | 264° |
| 2026-05-04 21:50 | 52.28872 | -23.05268 | 38392 ft | 454 kts | 264° |
| 2026-05-04 21:51 | 52.28024 | -23.15492 | 38405 ft | 454 kts | 264° |
| 2026-05-04 21:51 | 52.27168 | -23.25707 | 38410 ft | 454 kts | 263° |
| 2026-05-04 21:52 | 52.26303 | -23.35923 | 38400 ft | 454 kts | 263° |
| 2026-05-04 21:52 | 52.25429 | -23.46132 | 38415 ft | 454 kts | 263° |
| 2026-05-04 21:53 | 52.24547 | -23.56331 | 38417 ft | 454 kts | 263° |
| 2026-05-04 21:53 | 52.23663 | -23.66453 | 38412 ft | 454 kts | 263° |
| 2026-05-04 21:54 | 52.22764 | -23.76636 | 38422 ft | 454 kts | 263° |
| 2026-05-04 21:54 | 52.21856 | -23.86817 | 38410 ft | 454 kts | 263° |
| 2026-05-04 21:55 | 52.20940 | -23.96985 | 38416 ft | 453 kts | 263° |
| 2026-05-04 21:55 | 52.20015 | -24.07155 | 38418 ft | 453 kts | 263° |
| 2026-05-04 21:56 | 52.19083 | -24.17306 | 38418 ft | 453 kts | 263° |
| 2026-05-04 21:56 | 52.18141 | -24.27460 | 38421 ft | 453 kts | 263° |
| 2026-05-04 21:57 | 52.17190 | -24.37611 | 38423 ft | 453 kts | 263° |
| 2026-05-04 21:57 | 52.16231 | -24.47752 | 38427 ft | 453 kts | 263° |
| 2026-05-04 21:58 | 52.15263 | -24.57893 | 38436 ft | 453 kts | 263° |
| 2026-05-04 21:58 | 52.14285 | -24.68044 | 38428 ft | 454 kts | 262° |
| 2026-05-04 21:59 | 52.13298 | -24.78195 | 38421 ft | 454 kts | 262° |
| 2026-05-04 21:59 | 52.12302 | -24.88343 | 38413 ft | 454 kts | 262° |
| 2026-05-04 22:00 | 52.11297 | -24.98491 | 38428 ft | 454 kts | 262° |
| 2026-05-04 22:00 | 52.10283 | -25.08631 | 38432 ft | 454 kts | 262° |
| 2026-05-04 22:01 | 52.09260 | -25.18774 | 38433 ft | 455 kts | 262° |
| 2026-05-04 22:01 | 52.08228 | -25.28913 | 38430 ft | 455 kts | 262° |
| 2026-05-04 22:02 | 52.07187 | -25.39051 | 38424 ft | 455 kts | 262° |
| 2026-05-04 22:02 | 52.06145 | -25.49113 | 38428 ft | 454 kts | 262° |
| 2026-05-04 22:03 | 52.05088 | -25.59226 | 38426 ft | 454 kts | 262° |
| 2026-05-04 22:03 | 52.04015 | -25.69410 | 38428 ft | 454 kts | 262° |
| 2026-05-04 22:04 | 52.02949 | -25.79444 | 38423 ft | 454 kts | 262° |
| 2026-05-04 22:04 | 52.01866 | -25.89540 | 38424 ft | 454 kts | 262° |
| 2026-05-04 22:05 | 52.00776 | -25.99630 | 38435 ft | 454 kts | 262° |
| 2026-05-04 22:05 | 51.99676 | -26.09714 | 38436 ft | 454 kts | 261° |
| 2026-05-04 22:06 | 51.98757 | -26.18087 | 38428 ft | 454 kts | 261° |
| 2026-05-04 22:06 | 51.97452 | -26.29862 | 38429 ft | 454 kts | 261° |
| 2026-05-04 22:07 | 51.96518 | -26.38230 | 38429 ft | 453 kts | 261° |
| 2026-05-04 22:07 | 51.95387 | -26.48285 | 38432 ft | 453 kts | 261° |
| 2026-05-04 22:08 | 51.94248 | -26.58332 | 38435 ft | 453 kts | 261° |
| 2026-05-04 22:08 | 51.93100 | -26.68375 | 38439 ft | 453 kts | 261° |
| 2026-05-04 22:09 | 51.91943 | -26.78413 | 38431 ft | 453 kts | 261° |
| 2026-05-04 22:09 | 51.90778 | -26.88442 | 38432 ft | 453 kts | 261° |
| 2026-05-04 22:10 | 51.89606 | -26.98457 | 38440 ft | 453 kts | 261° |
| 2026-05-04 22:10 | 51.88425 | -27.08470 | 38438 ft | 453 kts | 261° |
| 2026-05-04 22:11 | 51.87236 | -27.18475 | 38435 ft | 453 kts | 261° |
| 2026-05-04 22:11 | 51.86039 | -27.28472 | 38434 ft | 453 kts | 261° |
| 2026-05-04 22:12 | 51.84833 | -27.38459 | 38431 ft | 452 kts | 261° |
| 2026-05-04 22:12 | 51.83620 | -27.48440 | 38435 ft | 452 kts | 261° |
| 2026-05-04 22:13 | 51.82407 | -27.58342 | 38435 ft | 452 kts | 261° |
| 2026-05-04 22:13 | 51.81177 | -27.68309 | 38436 ft | 452 kts | 261° |
| 2026-05-04 22:14 | 51.79938 | -27.78274 | 38424 ft | 452 kts | 261° |
| 2026-05-04 22:14 | 51.78691 | -27.88231 | 38434 ft | 452 kts | 261° |
| 2026-05-04 22:15 | 51.77436 | -27.98182 | 38441 ft | 452 kts | 261° |
| 2026-05-04 22:15 | 51.76172 | -28.08125 | 38433 ft | 452 kts | 261° |
| 2026-05-04 22:16 | 51.74901 | -28.18062 | 38433 ft | 452 kts | 261° |
| 2026-05-04 22:16 | 51.73619 | -28.28003 | 38437 ft | 452 kts | 261° |
| 2026-05-04 22:17 | 51.72330 | -28.37933 | 38441 ft | 452 kts | 261° |
| 2026-05-04 22:17 | 51.71033 | -28.47856 | 38436 ft | 452 kts | 261° |
| 2026-05-04 22:18 | 51.69726 | -28.57782 | 38439 ft | 453 kts | 260° |
| 2026-05-04 22:18 | 51.68411 | -28.67702 | 38445 ft | 453 kts | 261° |
| 2026-05-04 22:19 | 51.67087 | -28.77620 | 38435 ft | 453 kts | 261° |
| 2026-05-04 22:19 | 51.65754 | -28.87540 | 38438 ft | 453 kts | 261° |
| 2026-05-04 22:20 | 51.64412 | -28.97458 | 38440 ft | 453 kts | 261° |
| 2026-05-04 22:20 | 51.63061 | -29.07375 | 38439 ft | 454 kts | 260° |
| 2026-05-04 22:21 | 51.61700 | -29.17291 | 38440 ft | 454 kts | 260° |
| 2026-05-04 22:21 | 51.60330 | -29.27210 | 38426 ft | 454 kts | 261° |
| 2026-05-04 22:22 | 51.58954 | -29.37115 | 38434 ft | 454 kts | 260° |
| 2026-05-04 22:22 | 51.57568 | -29.47014 | 38437 ft | 454 kts | 260° |
| 2026-05-04 22:23 | 51.56174 | -29.56914 | 38440 ft | 454 kts | 260° |
| 2026-05-04 22:23 | 51.54780 | -29.66743 | 38436 ft | 454 kts | 260° |
| 2026-05-04 22:24 | 51.53370 | -29.76624 | 38432 ft | 454 kts | 260° |
| 2026-05-04 22:24 | 51.51955 | -29.86486 | 38436 ft | 453 kts | 260° |
| 2026-05-04 22:25 | 51.50532 | -29.96335 | 38431 ft | 453 kts | 260° |
| 2026-05-04 22:25 | 51.49577 | -30.06257 | 38434 ft | 449 kts | 268° |
| 2026-05-04 22:26 | 51.49043 | -30.16231 | 38438 ft | 448 kts | 268° |
| 2026-05-04 22:26 | 51.48495 | -30.26194 | 38427 ft | 448 kts | 268° |
| 2026-05-04 22:27 | 51.47924 | -30.36130 | 38434 ft | 447 kts | 268° |
| 2026-05-04 22:27 | 51.47337 | -30.46055 | 38429 ft | 447 kts | 268° |
| 2026-05-04 22:28 | 51.46743 | -30.55905 | 38434 ft | 447 kts | 268° |
| 2026-05-04 22:28 | 51.46139 | -30.65810 | 38431 ft | 446 kts | 268° |
| 2026-05-04 22:29 | 51.45521 | -30.75784 | 38429 ft | 446 kts | 267° |
| 2026-05-04 22:29 | 51.44905 | -30.85618 | 38429 ft | 446 kts | 267° |
| 2026-05-04 22:30 | 51.44275 | -30.95522 | 38427 ft | 447 kts | 267° |
| 2026-05-04 22:30 | 51.43637 | -31.05428 | 38423 ft | 447 kts | 267° |
| 2026-05-04 22:31 | 51.42990 | -31.15334 | 38421 ft | 447 kts | 267° |
| 2026-05-04 22:31 | 51.42334 | -31.25238 | 38412 ft | 446 kts | 268° |
| 2026-05-04 22:32 | 51.41672 | -31.35109 | 38415 ft | 445 kts | 268° |
| 2026-05-04 22:32 | 51.41004 | -31.44949 | 38415 ft | 444 kts | 267° |
| 2026-05-04 22:33 | 51.40330 | -31.54754 | 38410 ft | 443 kts | 267° |
| 2026-05-04 22:33 | 51.39649 | -31.64544 | 38411 ft | 442 kts | 267° |
| 2026-05-04 22:34 | 51.38960 | -31.74314 | 38380 ft | 441 kts | 268° |
| 2026-05-04 22:34 | 51.38269 | -31.83998 | 38395 ft | 440 kts | 268° |
| 2026-05-04 22:35 | 51.37568 | -31.93722 | 38405 ft | 440 kts | 268° |
| 2026-05-04 22:35 | 51.36859 | -32.03435 | 38407 ft | 439 kts | 268° |
| 2026-05-04 22:36 | 51.36143 | -32.13142 | 38403 ft | 439 kts | 268° |
| 2026-05-04 22:36 | 51.35417 | -32.22855 | 38403 ft | 440 kts | 267° |
| 2026-05-04 22:37 | 51.34684 | -32.32554 | 38398 ft | 439 kts | 268° |
| 2026-05-04 22:37 | 51.33944 | -32.42242 | 38402 ft | 439 kts | 268° |
| 2026-05-04 22:38 | 51.33196 | -32.51925 | 38394 ft | 439 kts | 268° |
| 2026-05-04 22:38 | 51.32440 | -32.61613 | 38392 ft | 439 kts | 268° |
| 2026-05-04 22:39 | 51.31676 | -32.71294 | 38389 ft | 439 kts | 268° |
| 2026-05-04 22:39 | 51.30904 | -32.80963 | 38375 ft | 438 kts | 268° |
| 2026-05-04 22:40 | 51.30126 | -32.90613 | 38384 ft | 438 kts | 268° |
| 2026-05-04 22:40 | 51.29341 | -33.00249 | 38389 ft | 437 kts | 268° |
| 2026-05-04 22:41 | 51.28549 | -33.09875 | 38379 ft | 437 kts | 268° |
| 2026-05-04 22:41 | 51.27747 | -33.19507 | 38385 ft | 437 kts | 268° |
| 2026-05-04 22:42 | 51.26938 | -33.29136 | 38352 ft | 437 kts | 267° |
| 2026-05-04 22:42 | 51.26123 | -33.38735 | 38376 ft | 436 kts | 267° |
| 2026-05-04 22:43 | 51.25301 | -33.48317 | 38377 ft | 435 kts | 267° |
| 2026-05-04 22:43 | 51.24478 | -33.57820 | 38374 ft | 435 kts | 267° |
| 2026-05-04 22:44 | 51.23638 | -33.67436 | 38375 ft | 435 kts | 267° |
| 2026-05-04 22:44 | 51.22795 | -33.76981 | 38376 ft | 434 kts | 267° |
| 2026-05-04 22:45 | 51.21947 | -33.86497 | 38370 ft | 432 kts | 267° |
| 2026-05-04 22:45 | 51.20673 | -34.00610 | 38358 ft | 429 kts | 267° |
| 2026-05-04 22:46 | 51.19818 | -34.09994 | 38360 ft | 426 kts | 267° |
| 2026-05-04 22:46 | 51.18959 | -34.19320 | 38367 ft | 424 kts | 267° |
| 2026-05-04 22:47 | 51.18097 | -34.28610 | 38369 ft | 423 kts | 267° |
| 2026-05-04 22:47 | 51.17231 | -34.37858 | 38357 ft | 422 kts | 267° |
| 2026-05-04 22:48 | 51.16358 | -34.47105 | 38363 ft | 422 kts | 267° |
| 2026-05-04 22:48 | 51.15476 | -34.56368 | 38363 ft | 424 kts | 267° |
| 2026-05-04 22:49 | 51.14582 | -34.65661 | 38363 ft | 425 kts | 267° |
| 2026-05-04 22:49 | 51.13679 | -34.74976 | 38359 ft | 426 kts | 267° |
| 2026-05-04 22:50 | 51.12766 | -34.84303 | 38349 ft | 426 kts | 265° |
| 2026-05-04 22:50 | 51.11847 | -34.93612 | 38345 ft | 426 kts | 265° |
| 2026-05-04 22:51 | 51.10921 | -35.02913 | 38348 ft | 425 kts | 265° |
| 2026-05-04 22:51 | 51.09989 | -35.12201 | 38356 ft | 425 kts | 265° |
| 2026-05-04 22:52 | 51.09051 | -35.21471 | 38346 ft | 424 kts | 265° |
| 2026-05-04 22:52 | 51.08107 | -35.30725 | 38380 ft | 426 kts | 265° |
| 2026-05-04 22:53 | 51.07635 | -35.35322 | 38994 ft | 415 kts | 264° |
| 2026-05-04 22:53 | 51.07169 | -35.39827 | 39302 ft | 412 kts | 264° |
| 2026-05-04 22:53 | 51.06232 | -35.48882 | 39444 ft | 418 kts | 264° |
| 2026-05-04 22:54 | 51.05280 | -35.58018 | 39662 ft | 420 kts | 264° |
| 2026-05-04 22:54 | 51.04798 | -35.62604 | 39782 ft | 421 kts | 264° |
| 2026-05-04 22:54 | 51.04314 | -35.67195 | 39903 ft | 422 kts | 264° |
| 2026-05-04 22:55 | 51.03827 | -35.71790 | 40017 ft | 422 kts | 263° |
| 2026-05-04 22:55 | 51.03337 | -35.76399 | 40132 ft | 423 kts | 263° |
| 2026-05-04 22:55 | 51.02349 | -35.85635 | 40275 ft | 425 kts | 263° |
| 2026-05-04 22:56 | 51.01519 | -35.93349 | 40322 ft | 427 kts | 263° |
| 2026-05-04 22:56 | 51.00510 | -36.02645 | 40330 ft | 427 kts | 263° |
| 2026-05-04 22:57 | 50.99493 | -36.11938 | 40329 ft | 427 kts | 263° |
| 2026-05-04 22:57 | 50.98471 | -36.21215 | 40327 ft | 427 kts | 263° |
| 2026-05-04 22:58 | 50.97450 | -36.30416 | 40320 ft | 426 kts | 263° |
| 2026-05-04 22:58 | 50.96417 | -36.39659 | 40310 ft | 425 kts | 262° |
| 2026-05-04 22:59 | 50.95376 | -36.48888 | 40317 ft | 425 kts | 262° |
| 2026-05-04 22:59 | 50.94330 | -36.58110 | 40316 ft | 425 kts | 262° |
| 2026-05-04 23:00 | 50.93276 | -36.67330 | 40317 ft | 425 kts | 262° |
| 2026-05-04 23:00 | 50.92213 | -36.76552 | 40308 ft | 425 kts | 262° |
| 2026-05-04 23:01 | 50.91144 | -36.85772 | 40296 ft | 425 kts | 261° |
| 2026-05-04 23:01 | 50.90067 | -36.94991 | 40302 ft | 426 kts | 261° |
| 2026-05-04 23:02 | 50.88981 | -37.04207 | 40302 ft | 426 kts | 261° |
| 2026-05-04 23:02 | 50.87888 | -37.13428 | 40294 ft | 426 kts | 261° |
| 2026-05-04 23:03 | 50.86788 | -37.22646 | 40291 ft | 426 kts | 261° |
| 2026-05-04 23:03 | 50.85680 | -37.31862 | 40269 ft | 426 kts | 260° |
| 2026-05-04 23:04 | 50.84564 | -37.41080 | 40280 ft | 426 kts | 260° |
| 2026-05-04 23:04 | 50.83440 | -37.50300 | 40287 ft | 427 kts | 259° |
| 2026-05-04 23:05 | 50.82307 | -37.59522 | 40278 ft | 428 kts | 259° |
| 2026-05-04 23:05 | 50.81165 | -37.68755 | 40272 ft | 428 kts | 259° |
| 2026-05-04 23:06 | 50.80016 | -37.77986 | 40264 ft | 428 kts | 259° |
| 2026-05-04 23:06 | 50.78860 | -37.87224 | 40261 ft | 428 kts | 259° |
| 2026-05-04 23:07 | 50.77694 | -37.96455 | 40256 ft | 428 kts | 258° |
| 2026-05-04 23:07 | 50.76522 | -38.05680 | 40256 ft | 428 kts | 258° |
| 2026-05-04 23:08 | 50.75342 | -38.14905 | 40242 ft | 428 kts | 258° |
| 2026-05-04 23:08 | 50.74156 | -38.24122 | 40242 ft | 428 kts | 258° |
| 2026-05-04 23:09 | 50.72971 | -38.33268 | 40229 ft | 428 kts | 258° |
| 2026-05-04 23:09 | 50.71770 | -38.42474 | 40237 ft | 428 kts | 257° |
| 2026-05-04 23:10 | 50.70562 | -38.51672 | 40228 ft | 428 kts | 257° |
| 2026-05-04 23:10 | 50.69346 | -38.60878 | 40230 ft | 429 kts | 257° |
| 2026-05-04 23:11 | 50.68120 | -38.70092 | 40215 ft | 429 kts | 257° |
| 2026-05-04 23:11 | 50.66887 | -38.79306 | 40205 ft | 430 kts | 257° |
| 2026-05-04 23:12 | 50.65645 | -38.88522 | 40209 ft | 430 kts | 256° |
| 2026-05-04 23:12 | 50.64394 | -38.97750 | 40206 ft | 431 kts | 256° |
| 2026-05-04 23:13 | 50.63134 | -39.06985 | 40196 ft | 431 kts | 256° |
| 2026-05-04 23:13 | 50.61866 | -39.16223 | 40189 ft | 432 kts | 256° |
| 2026-05-04 23:14 | 50.60589 | -39.25466 | 40188 ft | 432 kts | 256° |
| 2026-05-04 23:14 | 50.59303 | -39.34712 | 40177 ft | 433 kts | 255° |
| 2026-05-04 23:15 | 50.58009 | -39.43964 | 40181 ft | 433 kts | 255° |
| 2026-05-04 23:15 | 50.56706 | -39.53219 | 40167 ft | 433 kts | 255° |
| 2026-05-04 23:16 | 50.55395 | -39.62474 | 40166 ft | 434 kts | 255° |
| 2026-05-04 23:16 | 50.54076 | -39.71731 | 40170 ft | 434 kts | 255° |
| 2026-05-04 23:17 | 50.52750 | -39.80990 | 40161 ft | 434 kts | 254° |
| 2026-05-04 23:17 | 50.51415 | -39.90249 | 40144 ft | 435 kts | 254° |
| 2026-05-04 23:18 | 50.50105 | -39.99515 | 40139 ft | 435 kts | 256° |
| 2026-05-04 23:18 | 50.49443 | -40.08999 | 40124 ft | 438 kts | 261° |
| 2026-05-04 23:19 | 50.48932 | -40.18523 | 40129 ft | 438 kts | 261° |
| 2026-05-04 23:19 | 50.48404 | -40.27979 | 40118 ft | 438 kts | 261° |
| 2026-05-04 23:20 | 50.47850 | -40.37566 | 40115 ft | 438 kts | 260° |
| 2026-05-04 23:20 | 50.47289 | -40.47037 | 40113 ft | 439 kts | 260° |
| 2026-05-04 23:21 | 50.46716 | -40.56581 | 40111 ft | 440 kts | 260° |
| 2026-05-04 23:21 | 50.46134 | -40.66144 | 40112 ft | 441 kts | 260° |
| 2026-05-04 23:22 | 50.45542 | -40.75734 | 40100 ft | 442 kts | 259° |
| 2026-05-04 23:22 | 50.44942 | -40.85334 | 40099 ft | 443 kts | 259° |
| 2026-05-04 23:23 | 50.44333 | -40.94946 | 40073 ft | 443 kts | 259° |
| 2026-05-04 23:23 | 50.43717 | -41.04557 | 40078 ft | 443 kts | 259° |
| 2026-05-04 23:24 | 50.43092 | -41.14164 | 40071 ft | 443 kts | 259° |
| 2026-05-04 23:24 | 50.42460 | -41.23764 | 40066 ft | 442 kts | 259° |
| 2026-05-04 23:25 | 50.41820 | -41.33353 | 40045 ft | 442 kts | 259° |
| 2026-05-04 23:25 | 50.41173 | -41.42931 | 40054 ft | 442 kts | 259° |
| 2026-05-04 23:26 | 50.40516 | -41.52535 | 40048 ft | 444 kts | 258° |
| 2026-05-04 23:26 | 50.39848 | -41.62170 | 40025 ft | 445 kts | 258° |
| 2026-05-04 23:27 | 50.39171 | -41.71823 | 40024 ft | 446 kts | 258° |
| 2026-05-04 23:27 | 50.38485 | -41.81503 | 40022 ft | 447 kts | 258° |
| 2026-05-04 23:28 | 50.37790 | -41.91186 | 40006 ft | 448 kts | 258° |
| 2026-05-04 23:28 | 50.37086 | -42.00885 | 40001 ft | 448 kts | 258° |
| 2026-05-04 23:29 | 50.36373 | -42.10586 | 39989 ft | 449 kts | 257° |
| 2026-05-04 23:29 | 50.35651 | -42.20290 | 39984 ft | 449 kts | 257° |
| 2026-05-04 23:30 | 50.34927 | -42.29919 | 39980 ft | 449 kts | 257° |
| 2026-05-04 23:30 | 50.34196 | -42.39532 | 39976 ft | 449 kts | 257° |
| 2026-05-04 23:31 | 50.33450 | -42.49240 | 39988 ft | 449 kts | 257° |
| 2026-05-04 23:31 | 50.32695 | -42.58955 | 39955 ft | 450 kts | 257° |
| 2026-05-04 23:32 | 50.31931 | -42.68670 | 39956 ft | 450 kts | 257° |
| 2026-05-04 23:32 | 50.31160 | -42.78381 | 39954 ft | 450 kts | 257° |
| 2026-05-04 23:33 | 50.30380 | -42.88087 | 39956 ft | 450 kts | 257° |
| 2026-05-04 23:33 | 50.29592 | -42.97786 | 39944 ft | 450 kts | 257° |
| 2026-05-04 23:34 | 50.28796 | -43.07490 | 39957 ft | 451 kts | 256° |
| 2026-05-04 23:34 | 50.27989 | -43.17216 | 39943 ft | 451 kts | 256° |
| 2026-05-04 23:35 | 50.27175 | -43.26941 | 39942 ft | 451 kts | 256° |
| 2026-05-04 23:35 | 50.26351 | -43.36674 | 39940 ft | 452 kts | 256° |
| 2026-05-04 23:36 | 50.25524 | -43.46343 | 39944 ft | 453 kts | 256° |
| 2026-05-04 23:36 | 50.24683 | -43.56089 | 39936 ft | 452 kts | 256° |
| 2026-05-04 23:37 | 50.23833 | -43.65836 | 39944 ft | 453 kts | 256° |
| 2026-05-04 23:37 | 50.22974 | -43.75587 | 39943 ft | 453 kts | 256° |
| 2026-05-04 23:38 | 50.22107 | -43.85335 | 39933 ft | 454 kts | 256° |
| 2026-05-04 23:38 | 50.21230 | -43.95096 | 39941 ft | 454 kts | 256° |
| 2026-05-04 23:39 | 50.20343 | -44.04866 | 39934 ft | 455 kts | 256° |
| 2026-05-04 23:39 | 50.19448 | -44.14642 | 39948 ft | 455 kts | 256° |
| 2026-05-04 23:40 | 50.18543 | -44.24427 | 39931 ft | 456 kts | 256° |
| 2026-05-04 23:40 | 50.17630 | -44.34215 | 39925 ft | 456 kts | 256° |
| 2026-05-04 23:41 | 50.16708 | -44.44003 | 39929 ft | 456 kts | 256° |
| 2026-05-04 23:41 | 50.15779 | -44.53777 | 39927 ft | 456 kts | 255° |
| 2026-05-04 23:42 | 50.14843 | -44.63533 | 39923 ft | 455 kts | 255° |
| 2026-05-04 23:42 | 50.13897 | -44.73300 | 39938 ft | 456 kts | 256° |
| 2026-05-04 23:43 | 50.12942 | -44.83070 | 39920 ft | 456 kts | 256° |
| 2026-05-04 23:43 | 50.11979 | -44.92838 | 39907 ft | 456 kts | 256° |
| 2026-05-04 23:44 | 50.11008 | -45.02605 | 39908 ft | 456 kts | 255° |
| 2026-05-04 23:44 | 50.10028 | -45.12368 | 39908 ft | 456 kts | 255° |
| 2026-05-04 23:45 | 50.09048 | -45.22052 | 39921 ft | 456 kts | 256° |
| 2026-05-04 23:45 | 50.08051 | -45.31810 | 39899 ft | 456 kts | 255° |
| 2026-05-04 23:46 | 50.07047 | -45.41561 | 39901 ft | 456 kts | 255° |
| 2026-05-04 23:46 | 50.06200 | -45.49726 | 39896 ft | 456 kts | 255° |
| 2026-05-04 23:47 | 50.05181 | -45.59470 | 39893 ft | 456 kts | 255° |
| 2026-05-04 23:47 | 50.04159 | -45.69155 | 39889 ft | 457 kts | 255° |
| 2026-05-04 23:48 | 50.03122 | -45.78904 | 39883 ft | 457 kts | 255° |
| 2026-05-04 23:48 | 50.02075 | -45.88665 | 39868 ft | 457 kts | 255° |
| 2026-05-04 23:49 | 50.01021 | -45.98411 | 39869 ft | 457 kts | 255° |
| 2026-05-04 23:49 | 49.99960 | -46.08152 | 39868 ft | 457 kts | 255° |
| 2026-05-04 23:50 | 49.98890 | -46.17886 | 39855 ft | 457 kts | 255° |
| 2026-05-04 23:50 | 49.97813 | -46.27610 | 39854 ft | 457 kts | 255° |
| 2026-05-04 23:51 | 49.96727 | -46.37334 | 39863 ft | 458 kts | 255° |
| 2026-05-04 23:51 | 49.95630 | -46.47073 | 39857 ft | 458 kts | 255° |
| 2026-05-04 23:52 | 49.94525 | -46.56816 | 39846 ft | 459 kts | 255° |
| 2026-05-04 23:52 | 49.93410 | -46.66570 | 39841 ft | 459 kts | 255° |
| 2026-05-04 23:53 | 49.92286 | -46.76322 | 39844 ft | 459 kts | 255° |
| 2026-05-04 23:53 | 49.91154 | -46.86076 | 39834 ft | 460 kts | 255° |
| 2026-05-04 23:54 | 49.90011 | -46.95840 | 39830 ft | 460 kts | 254° |
| 2026-05-04 23:54 | 49.88861 | -47.05596 | 39828 ft | 460 kts | 254° |
| 2026-05-04 23:55 | 49.87702 | -47.15350 | 39839 ft | 460 kts | 254° |
| 2026-05-04 23:56 | 49.85943 | -47.30014 | 39817 ft | 461 kts | 254° |
| 2026-05-04 23:56 | 49.84767 | -47.39727 | 39822 ft | 462 kts | 254° |
| 2026-05-04 23:57 | 49.83575 | -47.49503 | 39798 ft | 462 kts | 254° |
| 2026-05-04 23:57 | 49.82374 | -47.59287 | 39799 ft | 462 kts | 254° |
| 2026-05-04 23:58 | 49.81165 | -47.69056 | 39801 ft | 462 kts | 254° |
| 2026-05-04 23:58 | 49.79948 | -47.78821 | 39786 ft | 462 kts | 254° |
| 2026-05-04 23:59 | 49.78723 | -47.88577 | 39800 ft | 462 kts | 254° |
| 2026-05-04 23:59 | 49.77490 | -47.98328 | 39780 ft | 462 kts | 254° |
| 2026-05-05 00:00 | 49.76248 | -48.08078 | 39769 ft | 462 kts | 254° |
| 2026-05-05 00:00 | 49.74999 | -48.17809 | 39767 ft | 461 kts | 254° |
| 2026-05-05 00:01 | 49.73744 | -48.27531 | 39765 ft | 461 kts | 254° |
| 2026-05-05 00:01 | 49.72481 | -48.37239 | 39781 ft | 461 kts | 254° |
| 2026-05-05 00:02 | 49.71211 | -48.46939 | 39756 ft | 460 kts | 254° |
| 2026-05-05 00:02 | 49.69933 | -48.56627 | 39748 ft | 460 kts | 254° |
| 2026-05-05 00:03 | 49.68647 | -48.66308 | 39744 ft | 460 kts | 254° |
| 2026-05-05 00:03 | 49.67355 | -48.75973 | 39740 ft | 460 kts | 253° |
| 2026-05-05 00:04 | 49.66054 | -48.85641 | 39739 ft | 460 kts | 253° |
| 2026-05-05 00:04 | 49.64744 | -48.95307 | 39745 ft | 460 kts | 253° |
| 2026-05-05 00:05 | 49.63426 | -49.04976 | 39720 ft | 460 kts | 253° |
| 2026-05-05 00:05 | 49.62100 | -49.14630 | 39713 ft | 460 kts | 253° |
| 2026-05-05 00:06 | 49.60777 | -49.24205 | 39710 ft | 460 kts | 253° |
| 2026-05-05 00:06 | 49.59436 | -49.33843 | 39682 ft | 459 kts | 253° |
| 2026-05-05 00:07 | 49.58090 | -49.43461 | 39699 ft | 459 kts | 253° |
| 2026-05-05 00:07 | 49.56734 | -49.53079 | 39705 ft | 459 kts | 253° |
| 2026-05-05 00:08 | 49.55371 | -49.62694 | 39695 ft | 460 kts | 253° |
| 2026-05-05 00:08 | 49.53999 | -49.72305 | 39670 ft | 459 kts | 253° |
| 2026-05-05 00:09 | 49.52620 | -49.81909 | 39670 ft | 459 kts | 253° |
| 2026-05-05 00:09 | 49.51236 | -49.91502 | 39669 ft | 459 kts | 253° |
| 2026-05-05 00:10 | 49.49762 | -50.01039 | 39652 ft | 456 kts | 249° |
| 2026-05-05 00:10 | 49.47614 | -50.10181 | 39651 ft | 453 kts | 246° |
| 2026-05-05 00:11 | 49.45394 | -50.19243 | 39650 ft | 453 kts | 246° |
| 2026-05-05 00:11 | 49.43186 | -50.28307 | 39649 ft | 453 kts | 246° |
| 2026-05-05 00:12 | 49.40989 | -50.37357 | 39653 ft | 453 kts | 246° |
| 2026-05-05 00:12 | 49.38782 | -50.46423 | 39643 ft | 453 kts | 246° |
| 2026-05-05 00:13 | 49.36567 | -50.55485 | 39633 ft | 453 kts | 246° |
| 2026-05-05 00:13 | 49.34345 | -50.64536 | 39627 ft | 454 kts | 246° |
| 2026-05-05 00:14 | 49.32117 | -50.73577 | 39610 ft | 454 kts | 246° |
| 2026-05-05 00:14 | 49.29879 | -50.82619 | 39617 ft | 454 kts | 246° |
| 2026-05-05 00:15 | 49.27636 | -50.91643 | 39610 ft | 453 kts | 246° |
| 2026-05-05 00:15 | 49.25385 | -51.00663 | 39611 ft | 453 kts | 246° |
| 2026-05-05 00:16 | 49.23129 | -51.09671 | 39613 ft | 453 kts | 246° |
| 2026-05-05 00:16 | 49.20866 | -51.18668 | 39595 ft | 453 kts | 246° |
| 2026-05-05 00:17 | 49.18597 | -51.27653 | 39597 ft | 453 kts | 246° |
| 2026-05-05 00:17 | 49.16321 | -51.36628 | 39596 ft | 453 kts | 246° |
| 2026-05-05 00:18 | 49.14040 | -51.45590 | 39598 ft | 453 kts | 246° |
| 2026-05-05 00:18 | 49.11751 | -51.54549 | 39586 ft | 453 kts | 246° |
| 2026-05-05 00:19 | 49.09455 | -51.63498 | 39584 ft | 453 kts | 246° |
| 2026-05-05 00:19 | 49.07154 | -51.72430 | 39590 ft | 453 kts | 246° |
| 2026-05-05 00:20 | 49.04847 | -51.81356 | 39583 ft | 453 kts | 246° |
| 2026-05-05 00:20 | 49.02533 | -51.90275 | 39588 ft | 452 kts | 246° |
| 2026-05-05 00:21 | 49.00213 | -51.99182 | 39588 ft | 452 kts | 246° |
| 2026-05-05 00:21 | 48.97879 | -52.07998 | 39588 ft | 452 kts | 245° |
| 2026-05-05 00:22 | 48.95503 | -52.16844 | 39593 ft | 452 kts | 245° |
| 2026-05-05 00:22 | 48.93121 | -52.25684 | 39604 ft | 452 kts | 245° |
| 2026-05-05 00:23 | 48.90736 | -52.34519 | 39580 ft | 452 kts | 245° |
| 2026-05-05 00:23 | 48.88344 | -52.43358 | 39577 ft | 452 kts | 245° |
| 2026-05-05 00:24 | 48.85946 | -52.52184 | 39578 ft | 452 kts | 245° |
| 2026-05-05 00:24 | 48.83540 | -52.61010 | 39571 ft | 452 kts | 245° |
| 2026-05-05 00:25 | 48.81128 | -52.69821 | 39563 ft | 452 kts | 245° |
| 2026-05-05 00:25 | 48.78710 | -52.78622 | 39574 ft | 452 kts | 245° |
| 2026-05-05 00:26 | 48.76284 | -52.87417 | 39570 ft | 452 kts | 245° |
| 2026-05-05 00:26 | 48.73852 | -52.96205 | 39575 ft | 452 kts | 245° |
| 2026-05-05 00:27 | 48.71417 | -53.04967 | 39534 ft | 451 kts | 245° |
| 2026-05-05 00:27 | 48.68978 | -53.13717 | 39540 ft | 451 kts | 245° |
| 2026-05-05 00:28 | 48.66535 | -53.22443 | 39557 ft | 450 kts | 245° |
| 2026-05-05 00:28 | 48.64089 | -53.31153 | 39542 ft | 450 kts | 245° |
| 2026-05-05 00:29 | 48.61637 | -53.39849 | 39536 ft | 449 kts | 245° |
| 2026-05-05 00:29 | 48.59180 | -53.48530 | 39517 ft | 449 kts | 245° |
| 2026-05-05 00:30 | 48.56720 | -53.57192 | 39516 ft | 448 kts | 245° |
| 2026-05-05 00:30 | 48.54274 | -53.65778 | 39514 ft | 448 kts | 245° |
| 2026-05-05 00:31 | 48.51807 | -53.74400 | 39520 ft | 448 kts | 245° |
| 2026-05-05 00:31 | 48.49336 | -53.83010 | 39496 ft | 447 kts | 245° |
| 2026-05-05 00:32 | 48.46858 | -53.91611 | 39501 ft | 447 kts | 245° |
| 2026-05-05 00:32 | 48.44378 | -54.00190 | 39506 ft | 447 kts | 245° |
| 2026-05-05 00:33 | 48.42310 | -54.07317 | 39515 ft | 447 kts | 245° |
| 2026-05-05 00:33 | 48.39395 | -54.17331 | 39542 ft | 447 kts | 245° |
| 2026-05-05 00:34 | 48.37316 | -54.24449 | 39534 ft | 447 kts | 245° |
| 2026-05-05 00:34 | 48.34808 | -54.33008 | 39530 ft | 447 kts | 244° |
| 2026-05-05 00:35 | 48.32293 | -54.41560 | 39547 ft | 447 kts | 244° |
| 2026-05-05 00:35 | 48.29772 | -54.50102 | 39564 ft | 447 kts | 244° |
| 2026-05-05 00:36 | 48.27245 | -54.58636 | 39570 ft | 447 kts | 244° |
| 2026-05-05 00:36 | 48.24711 | -54.67162 | 39581 ft | 447 kts | 244° |
| 2026-05-05 00:37 | 48.22172 | -54.75674 | 39580 ft | 447 kts | 244° |
| 2026-05-05 00:37 | 48.19628 | -54.84178 | 39583 ft | 447 kts | 244° |
| 2026-05-05 00:38 | 48.17095 | -54.92612 | 39541 ft | 447 kts | 244° |
| 2026-05-05 00:38 | 48.14542 | -55.01085 | 39533 ft | 446 kts | 244° |
| 2026-05-05 00:39 | 48.11981 | -55.09554 | 39551 ft | 447 kts | 244° |
| 2026-05-05 00:39 | 48.09411 | -55.18027 | 39541 ft | 448 kts | 244° |
| 2026-05-05 00:40 | 48.06829 | -55.26508 | 39512 ft | 448 kts | 244° |
| 2026-05-05 00:40 | 48.04235 | -55.34999 | 39504 ft | 449 kts | 244° |
| 2026-05-05 00:41 | 48.01634 | -55.43485 | 39505 ft | 449 kts | 244° |
| 2026-05-05 00:41 | 47.99026 | -55.51965 | 39508 ft | 450 kts | 244° |
| 2026-05-05 00:42 | 47.96410 | -55.60443 | 39501 ft | 450 kts | 244° |
| 2026-05-05 00:42 | 47.93786 | -55.68916 | 39497 ft | 450 kts | 244° |
| 2026-05-05 00:43 | 47.91173 | -55.77325 | 39501 ft | 450 kts | 244° |
| 2026-05-05 00:43 | 47.88540 | -55.85772 | 39506 ft | 449 kts | 244° |
| 2026-05-05 00:44 | 47.85906 | -55.94193 | 39503 ft | 448 kts | 244° |
| 2026-05-05 00:44 | 47.83265 | -56.02606 | 39493 ft | 449 kts | 244° |
| 2026-05-05 00:45 | 47.80613 | -56.11027 | 39500 ft | 449 kts | 244° |
| 2026-05-05 00:45 | 47.77955 | -56.19441 | 39500 ft | 450 kts | 244° |
| 2026-05-05 00:46 | 47.75289 | -56.27852 | 39517 ft | 450 kts | 244° |
| 2026-05-05 00:46 | 47.72614 | -56.36260 | 39519 ft | 450 kts | 244° |
| 2026-05-05 00:47 | 47.69933 | -56.44661 | 39546 ft | 450 kts | 244° |
| 2026-05-05 00:47 | 47.67247 | -56.53052 | 39546 ft | 450 kts | 244° |
| 2026-05-05 00:48 | 47.64555 | -56.61432 | 39572 ft | 449 kts | 244° |
| 2026-05-05 00:48 | 47.61870 | -56.69767 | 39600 ft | 447 kts | 244° |
| 2026-05-05 00:49 | 47.59184 | -56.78072 | 39604 ft | 446 kts | 244° |
| 2026-05-05 00:49 | 47.56503 | -56.86336 | 39643 ft | 445 kts | 243° |
| 2026-05-05 00:50 | 47.53819 | -56.94582 | 39622 ft | 445 kts | 243° |
| 2026-05-05 00:50 | 47.51129 | -57.02820 | 39656 ft | 444 kts | 243° |
| 2026-05-05 00:51 | 47.48436 | -57.11040 | 39657 ft | 444 kts | 243° |
| 2026-05-05 00:51 | 47.45737 | -57.19253 | 39664 ft | 445 kts | 243° |
| 2026-05-05 00:52 | 47.43028 | -57.27472 | 39667 ft | 445 kts | 243° |
| 2026-05-05 00:52 | 47.40311 | -57.35688 | 39660 ft | 446 kts | 243° |
| 2026-05-05 00:53 | 47.37586 | -57.43901 | 39661 ft | 446 kts | 243° |
| 2026-05-05 00:53 | 47.34854 | -57.52109 | 39667 ft | 446 kts | 243° |
| 2026-05-05 00:54 | 47.32181 | -57.60114 | 39669 ft | 447 kts | 243° |
| 2026-05-05 00:54 | 47.29432 | -57.68322 | 39674 ft | 447 kts | 243° |
| 2026-05-05 00:55 | 47.26687 | -57.76493 | 39684 ft | 447 kts | 243° |
| 2026-05-05 00:55 | 47.23921 | -57.84699 | 39675 ft | 447 kts | 243° |
| 2026-05-05 00:56 | 47.21149 | -57.92898 | 39684 ft | 447 kts | 243° |
| 2026-05-05 00:56 | 47.18375 | -58.01075 | 39685 ft | 447 kts | 243° |
| 2026-05-05 00:57 | 47.15593 | -58.09253 | 39683 ft | 447 kts | 243° |
| 2026-05-05 00:57 | 47.12810 | -58.17405 | 39687 ft | 446 kts | 243° |
| 2026-05-05 00:58 | 47.10023 | -58.25546 | 39693 ft | 446 kts | 243° |
| 2026-05-05 00:58 | 47.07233 | -58.33669 | 39692 ft | 446 kts | 243° |
| 2026-05-05 00:59 | 47.04437 | -58.41785 | 39693 ft | 446 kts | 243° |
| 2026-05-05 00:59 | 47.01635 | -58.49892 | 39692 ft | 446 kts | 243° |
| 2026-05-05 01:00 | 46.98829 | -58.57988 | 39707 ft | 446 kts | 243° |
| 2026-05-05 01:00 | 46.96011 | -58.66092 | 39711 ft | 447 kts | 243° |
| 2026-05-05 01:01 | 46.93183 | -58.74200 | 39701 ft | 448 kts | 243° |
| 2026-05-05 01:01 | 46.90344 | -58.82314 | 39701 ft | 448 kts | 243° |
| 2026-05-05 01:02 | 46.87498 | -58.90423 | 39706 ft | 448 kts | 242° |
| 2026-05-05 01:02 | 46.84647 | -58.98521 | 39705 ft | 448 kts | 242° |
| 2026-05-05 01:03 | 46.81790 | -59.06613 | 39698 ft | 448 kts | 242° |
| 2026-05-05 01:03 | 46.78928 | -59.14692 | 39697 ft | 448 kts | 242° |
| 2026-05-05 01:04 | 46.76082 | -59.22704 | 39697 ft | 447 kts | 242° |
| 2026-05-05 01:04 | 46.71780 | -59.34769 | 39698 ft | 447 kts | 242° |
| 2026-05-05 01:05 | 46.68903 | -59.42806 | 39700 ft | 447 kts | 242° |
| 2026-05-05 01:05 | 46.66019 | -59.50837 | 39691 ft | 448 kts | 242° |
| 2026-05-05 01:06 | 46.63124 | -59.58874 | 39693 ft | 448 kts | 242° |
| 2026-05-05 01:06 | 46.60224 | -59.66904 | 39697 ft | 449 kts | 242° |
| 2026-05-05 01:07 | 46.57316 | -59.74930 | 39696 ft | 449 kts | 242° |
| 2026-05-05 01:07 | 46.54399 | -59.82958 | 39696 ft | 449 kts | 242° |
| 2026-05-05 01:08 | 46.51474 | -59.90981 | 39694 ft | 449 kts | 242° |
| 2026-05-05 01:08 | 46.48549 | -59.98985 | 39697 ft | 449 kts | 242° |
| 2026-05-05 01:09 | 46.45620 | -60.06972 | 39684 ft | 448 kts | 242° |
| 2026-05-05 01:09 | 46.42689 | -60.14941 | 39680 ft | 448 kts | 242° |
| 2026-05-05 01:10 | 46.39757 | -60.22892 | 39699 ft | 447 kts | 242° |
| 2026-05-05 01:10 | 46.36825 | -60.30815 | 39697 ft | 445 kts | 242° |
| 2026-05-05 01:11 | 46.33901 | -60.38697 | 39699 ft | 444 kts | 242° |
| 2026-05-05 01:11 | 46.30982 | -60.46542 | 39695 ft | 442 kts | 242° |
| 2026-05-05 01:12 | 46.28069 | -60.54348 | 39706 ft | 441 kts | 242° |
| 2026-05-05 01:12 | 46.25153 | -60.62140 | 39697 ft | 439 kts | 242° |
| 2026-05-05 01:13 | 46.22242 | -60.69894 | 39709 ft | 439 kts | 242° |
| 2026-05-05 01:13 | 46.19351 | -60.77575 | 39711 ft | 438 kts | 242° |
| 2026-05-05 01:14 | 46.16415 | -60.85352 | 39720 ft | 438 kts | 242° |
| 2026-05-05 01:14 | 46.13515 | -60.93015 | 39703 ft | 439 kts | 242° |
| 2026-05-05 01:15 | 46.10581 | -61.00743 | 39736 ft | 440 kts | 242° |
| 2026-05-05 01:15 | 46.07625 | -61.08507 | 39742 ft | 443 kts | 241° |
| 2026-05-05 01:16 | 46.04648 | -61.16305 | 39743 ft | 446 kts | 241° |
| 2026-05-05 01:16 | 46.01651 | -61.24130 | 39742 ft | 447 kts | 241° |
| 2026-05-05 01:17 | 45.98640 | -61.31972 | 39737 ft | 448 kts | 241° |
| 2026-05-05 01:17 | 45.95625 | -61.39802 | 39751 ft | 447 kts | 241° |
| 2026-05-05 01:18 | 45.92608 | -61.47614 | 39748 ft | 447 kts | 241° |
| 2026-05-05 01:18 | 45.89588 | -61.55410 | 39752 ft | 446 kts | 241° |
| 2026-05-05 01:19 | 45.86573 | -61.63175 | 39755 ft | 445 kts | 241° |
| 2026-05-05 01:19 | 45.83563 | -61.70902 | 39755 ft | 444 kts | 241° |
| 2026-05-05 01:20 | 45.80549 | -61.78618 | 39771 ft | 443 kts | 241° |
| 2026-05-05 01:20 | 45.77531 | -61.86322 | 39772 ft | 443 kts | 241° |
| 2026-05-05 01:21 | 45.74509 | -61.94017 | 39767 ft | 443 kts | 241° |
| 2026-05-05 01:21 | 45.71502 | -62.01651 | 39762 ft | 443 kts | 241° |
| 2026-05-05 01:22 | 45.68465 | -62.09340 | 39760 ft | 444 kts | 241° |
| 2026-05-05 01:22 | 45.65422 | -62.17024 | 39768 ft | 444 kts | 241° |
| 2026-05-05 01:23 | 45.62370 | -62.24708 | 39765 ft | 445 kts | 241° |
| 2026-05-05 01:23 | 45.59308 | -62.32395 | 39759 ft | 445 kts | 241° |
| 2026-05-05 01:24 | 45.56759 | -62.38779 | 39766 ft | 445 kts | 241° |
| 2026-05-05 01:24 | 45.53687 | -62.46454 | 39779 ft | 446 kts | 241° |
| 2026-05-05 01:25 | 45.50606 | -62.54130 | 39772 ft | 446 kts | 241° |
| 2026-05-05 01:25 | 45.47520 | -62.61795 | 39778 ft | 446 kts | 241° |
| 2026-05-05 01:26 | 45.44433 | -62.69444 | 39782 ft | 445 kts | 241° |
| 2026-05-05 01:26 | 45.41343 | -62.77078 | 39783 ft | 445 kts | 241° |
| 2026-05-05 01:27 | 45.38252 | -62.84695 | 39784 ft | 444 kts | 241° |
| 2026-05-05 01:27 | 45.35155 | -62.92304 | 39780 ft | 444 kts | 241° |
| 2026-05-05 01:28 | 45.32056 | -62.99898 | 39798 ft | 444 kts | 241° |
| 2026-05-05 01:28 | 45.28958 | -63.07471 | 39797 ft | 443 kts | 241° |
| 2026-05-05 01:29 | 45.25853 | -63.15037 | 39797 ft | 443 kts | 241° |
| 2026-05-05 01:29 | 45.22749 | -63.22583 | 39802 ft | 443 kts | 241° |
| 2026-05-05 01:30 | 45.19640 | -63.30118 | 39804 ft | 442 kts | 241° |
| 2026-05-05 01:30 | 45.16529 | -63.37640 | 39797 ft | 442 kts | 241° |
| 2026-05-05 01:31 | 45.13417 | -63.45144 | 39791 ft | 442 kts | 241° |
| 2026-05-05 01:31 | 45.10325 | -63.52582 | 39797 ft | 441 kts | 241° |
| 2026-05-05 01:32 | 45.07208 | -63.60058 | 39813 ft | 441 kts | 241° |
| 2026-05-05 01:32 | 45.04086 | -63.67525 | 39816 ft | 441 kts | 241° |
| 2026-05-05 01:33 | 45.00961 | -63.74982 | 39818 ft | 441 kts | 240° |
| 2026-05-05 01:33 | 44.97826 | -63.82441 | 39826 ft | 441 kts | 240° |
| 2026-05-05 01:34 | 44.94687 | -63.89890 | 39816 ft | 441 kts | 240° |
| 2026-05-05 01:34 | 44.91545 | -63.97326 | 39811 ft | 441 kts | 240° |
| 2026-05-05 01:35 | 44.88401 | -64.04751 | 39820 ft | 441 kts | 240° |
| 2026-05-05 01:35 | 44.85250 | -64.12171 | 39818 ft | 441 kts | 240° |
| 2026-05-05 01:36 | 44.82092 | -64.19587 | 39822 ft | 441 kts | 240° |
| 2026-05-05 01:36 | 44.78931 | -64.26990 | 39808 ft | 441 kts | 240° |
| 2026-05-05 01:37 | 44.75770 | -64.34374 | 39815 ft | 440 kts | 240° |
| 2026-05-05 01:37 | 44.72609 | -64.41740 | 39819 ft | 439 kts | 240° |
| 2026-05-05 01:38 | 44.69447 | -64.49089 | 39821 ft | 439 kts | 240° |
| 2026-05-05 01:38 | 44.66284 | -64.56423 | 39808 ft | 438 kts | 240° |
| 2026-05-05 01:39 | 44.63124 | -64.63729 | 39826 ft | 437 kts | 240° |
| 2026-05-05 01:39 | 44.59985 | -64.70967 | 39838 ft | 437 kts | 240° |
| 2026-05-05 01:40 | 44.56814 | -64.78264 | 39841 ft | 439 kts | 240° |
| 2026-05-05 01:40 | 44.53631 | -64.85568 | 39840 ft | 440 kts | 240° |
| 2026-05-05 01:41 | 44.50433 | -64.92888 | 39851 ft | 441 kts | 240° |
| 2026-05-05 01:41 | 44.47228 | -65.00204 | 39865 ft | 441 kts | 240° |
| 2026-05-05 01:42 | 44.44011 | -65.07530 | 39865 ft | 442 kts | 240° |
| 2026-05-05 01:42 | 44.40786 | -65.14853 | 39877 ft | 442 kts | 240° |
| 2026-05-05 01:43 | 44.37559 | -65.22164 | 39869 ft | 441 kts | 239° |
| 2026-05-05 01:43 | 44.34336 | -65.29448 | 39872 ft | 440 kts | 239° |
| 2026-05-05 01:44 | 44.31116 | -65.36704 | 39891 ft | 439 kts | 239° |
| 2026-05-05 01:44 | 44.27901 | -65.43937 | 39889 ft | 439 kts | 240° |
| 2026-05-05 01:45 | 44.24673 | -65.51173 | 39882 ft | 440 kts | 239° |
| 2026-05-05 01:45 | 44.21436 | -65.58413 | 39885 ft | 440 kts | 239° |
| 2026-05-05 01:46 | 44.18188 | -65.65661 | 39889 ft | 442 kts | 239° |
| 2026-05-05 01:46 | 44.14927 | -65.72922 | 39890 ft | 443 kts | 239° |
| 2026-05-05 01:47 | 44.11653 | -65.80190 | 39888 ft | 443 kts | 239° |
| 2026-05-05 01:47 | 44.08393 | -65.87410 | 39897 ft | 444 kts | 239° |
| 2026-05-05 01:48 | 44.05106 | -65.94671 | 39890 ft | 444 kts | 239° |
| 2026-05-05 01:48 | 44.01812 | -66.01929 | 39903 ft | 444 kts | 239° |
| 2026-05-05 01:49 | 43.98518 | -66.09167 | 39906 ft | 443 kts | 239° |
| 2026-05-05 01:49 | 43.95221 | -66.16390 | 39902 ft | 443 kts | 239° |
| 2026-05-05 01:50 | 43.91926 | -66.23606 | 39910 ft | 442 kts | 239° |
| 2026-05-05 01:50 | 43.88828 | -66.30369 | 39903 ft | 442 kts | 239° |
| 2026-05-05 01:51 | 43.85527 | -66.37553 | 39888 ft | 442 kts | 239° |
| 2026-05-05 01:51 | 43.82226 | -66.44722 | 39899 ft | 441 kts | 239° |
| 2026-05-05 01:52 | 43.78924 | -66.51872 | 39908 ft | 441 kts | 239° |
| 2026-05-05 01:52 | 43.75620 | -66.59013 | 39905 ft | 441 kts | 239° |
| 2026-05-05 01:53 | 43.72347 | -66.66069 | 39905 ft | 440 kts | 239° |
| 2026-05-05 01:53 | 43.69035 | -66.73192 | 39913 ft | 440 kts | 239° |
| 2026-05-05 01:54 | 43.65723 | -66.80297 | 39910 ft | 440 kts | 239° |
| 2026-05-05 01:54 | 43.62407 | -66.87393 | 39911 ft | 441 kts | 239° |
| 2026-05-05 01:55 | 43.59078 | -66.94504 | 39929 ft | 442 kts | 239° |
| 2026-05-05 01:55 | 43.55750 | -67.01632 | 39919 ft | 441 kts | 240° |
| 2026-05-05 01:56 | 43.52646 | -67.08923 | 39922 ft | 441 kts | 242° |
| 2026-05-05 01:56 | 43.49616 | -67.16280 | 39923 ft | 441 kts | 242° |
| 2026-05-05 01:57 | 43.46565 | -67.23614 | 39921 ft | 442 kts | 242° |
| 2026-05-05 01:57 | 43.43488 | -67.30925 | 39913 ft | 441 kts | 241° |
| 2026-05-05 01:58 | 43.40419 | -67.38175 | 39921 ft | 441 kts | 241° |
| 2026-05-05 01:58 | 43.37327 | -67.45455 | 39926 ft | 441 kts | 241° |
| 2026-05-05 01:59 | 43.34235 | -67.52721 | 39926 ft | 441 kts | 241° |
| 2026-05-05 01:59 | 43.31137 | -67.59983 | 39915 ft | 440 kts | 241° |
| 2026-05-05 02:00 | 43.28042 | -67.67220 | 39927 ft | 439 kts | 241° |
| 2026-05-05 02:00 | 43.24950 | -67.74434 | 39933 ft | 438 kts | 241° |
| 2026-05-05 02:01 | 43.21856 | -67.81634 | 39933 ft | 438 kts | 241° |
| 2026-05-05 02:01 | 43.18761 | -67.88817 | 39922 ft | 437 kts | 241° |
| 2026-05-05 02:02 | 43.15665 | -67.95985 | 39940 ft | 437 kts | 241° |
| 2026-05-05 02:02 | 43.12566 | -68.03145 | 39939 ft | 437 kts | 241° |
| 2026-05-05 02:03 | 43.09461 | -68.10299 | 39938 ft | 438 kts | 241° |
| 2026-05-05 02:03 | 43.06347 | -68.17457 | 39940 ft | 438 kts | 241° |
| 2026-05-05 02:04 | 43.03228 | -68.24608 | 39936 ft | 438 kts | 241° |
| 2026-05-05 02:04 | 43.00105 | -68.31750 | 39940 ft | 438 kts | 241° |
| 2026-05-05 02:05 | 42.96982 | -68.38878 | 39947 ft | 437 kts | 241° |
| 2026-05-05 02:05 | 42.93853 | -68.45999 | 39945 ft | 437 kts | 241° |
| 2026-05-05 02:06 | 42.90725 | -68.53102 | 39945 ft | 436 kts | 241° |
| 2026-05-05 02:06 | 42.87615 | -68.60146 | 39948 ft | 436 kts | 241° |
| 2026-05-05 02:07 | 42.84484 | -68.67222 | 39948 ft | 436 kts | 241° |
| 2026-05-05 02:07 | 42.81349 | -68.74290 | 39945 ft | 436 kts | 241° |
| 2026-05-05 02:08 | 42.78210 | -68.81350 | 39945 ft | 436 kts | 241° |
| 2026-05-05 02:08 | 42.75068 | -68.88400 | 39953 ft | 436 kts | 241° |
| 2026-05-05 02:09 | 42.71920 | -68.95447 | 39950 ft | 436 kts | 241° |
| 2026-05-05 02:09 | 42.68765 | -69.02492 | 39951 ft | 436 kts | 241° |
| 2026-05-05 02:10 | 42.65606 | -69.09529 | 39949 ft | 436 kts | 241° |
| 2026-05-05 02:10 | 42.62442 | -69.16560 | 39950 ft | 436 kts | 241° |
| 2026-05-05 02:11 | 42.59276 | -69.23579 | 39955 ft | 436 kts | 241° |
| 2026-05-05 02:11 | 42.56101 | -69.30600 | 39954 ft | 436 kts | 241° |
| 2026-05-05 02:12 | 42.51331 | -69.41122 | 39941 ft | 437 kts | 241° |
| 2026-05-05 02:13 | 42.48684 | -69.46941 | 39958 ft | 436 kts | 240° |
| 2026-05-05 02:13 | 42.45496 | -69.53938 | 39957 ft | 436 kts | 240° |
| 2026-05-05 02:14 | 42.42303 | -69.60929 | 39969 ft | 437 kts | 240° |
| 2026-05-05 02:14 | 42.39104 | -69.67916 | 39959 ft | 437 kts | 240° |
| 2026-05-05 02:15 | 42.35901 | -69.74896 | 39955 ft | 437 kts | 240° |
| 2026-05-05 02:15 | 42.32697 | -69.81861 | 39966 ft | 436 kts | 240° |
| 2026-05-05 02:16 | 42.29489 | -69.88820 | 39968 ft | 436 kts | 240° |
| 2026-05-05 02:16 | 42.26276 | -69.95774 | 39970 ft | 436 kts | 240° |
| 2026-05-05 02:17 | 42.23059 | -70.02718 | 39950 ft | 436 kts | 240° |
| 2026-05-05 02:17 | 42.19840 | -70.09652 | 39943 ft | 436 kts | 240° |
| 2026-05-05 02:18 | 42.16618 | -70.16577 | 39978 ft | 436 kts | 240° |
| 2026-05-05 02:18 | 42.13393 | -70.23494 | 39978 ft | 436 kts | 240° |
| 2026-05-05 02:19 | 42.10183 | -70.30362 | 39966 ft | 436 kts | 240° |
| 2026-05-05 02:19 | 42.06947 | -70.37272 | 39943 ft | 436 kts | 240° |
| 2026-05-05 02:20 | 42.03877 | -70.44289 | 39953 ft | 434 kts | 246° |
| 2026-05-05 02:20 | 42.01522 | -70.51743 | 39954 ft | 433 kts | 249° |
| 2026-05-05 02:21 | 41.99201 | -70.59212 | 39953 ft | 433 kts | 249° |
| 2026-05-05 02:21 | 41.96857 | -70.66678 | 39957 ft | 433 kts | 249° |
| 2026-05-05 02:22 | 41.94503 | -70.74127 | 39969 ft | 433 kts | 249° |
| 2026-05-05 02:22 | 41.92143 | -70.81569 | 39970 ft | 433 kts | 249° |
| 2026-05-05 02:23 | 41.89778 | -70.89008 | 39971 ft | 433 kts | 248° |
| 2026-05-05 02:23 | 41.87408 | -70.96446 | 39972 ft | 434 kts | 248° |
| 2026-05-05 02:24 | 41.85030 | -71.03884 | 39971 ft | 434 kts | 248° |
| 2026-05-05 02:24 | 41.82650 | -71.11310 | 39966 ft | 433 kts | 248° |
| 2026-05-05 02:25 | 41.80264 | -71.18735 | 39963 ft | 433 kts | 248° |
| 2026-05-05 02:25 | 41.77876 | -71.26147 | 39968 ft | 433 kts | 248° |
| 2026-05-05 02:25 | 41.76678 | -71.29860 | 39702 ft | 438 kts | 248° |
| 2026-05-05 02:26 | 41.75469 | -71.33602 | 39235 ft | 435 kts | 248° |
| 2026-05-05 02:26 | 41.74262 | -71.37283 | 38773 ft | 429 kts | 246° |
| 2026-05-05 02:26 | 41.72781 | -71.40735 | 38238 ft | 427 kts | 238° |
| 2026-05-05 02:26 | 41.70997 | -71.43890 | 37744 ft | 423 kts | 233° |
| 2026-05-05 02:27 | 41.69032 | -71.46789 | 37308 ft | 419 kts | 228° |
| 2026-05-05 02:27 | 41.66843 | -71.49347 | 36883 ft | 415 kts | 224° |
| 2026-05-05 02:27 | 41.64655 | -71.51762 | 36451 ft | 411 kts | 224° |
| 2026-05-05 02:27 | 41.62456 | -71.54169 | 36043 ft | 406 kts | 224° |
| 2026-05-05 02:28 | 41.60287 | -71.56549 | 35639 ft | 402 kts | 225° |
| 2026-05-05 02:28 | 41.58136 | -71.58920 | 35210 ft | 399 kts | 225° |
| 2026-05-05 02:28 | 41.56011 | -71.61273 | 34787 ft | 396 kts | 225° |
| 2026-05-05 02:28 | 41.53898 | -71.63619 | 34375 ft | 395 kts | 226° |
| 2026-05-05 02:29 | 41.51770 | -71.65988 | 33948 ft | 404 kts | 225° |
| 2026-05-05 02:29 | 41.49581 | -71.68429 | 33491 ft | 414 kts | 225° |
| 2026-05-05 02:29 | 41.47368 | -71.70886 | 33019 ft | 413 kts | 225° |
| 2026-05-05 02:29 | 41.45169 | -71.73318 | 32566 ft | 408 kts | 225° |
| 2026-05-05 02:30 | 41.42997 | -71.75718 | 32137 ft | 403 kts | 225° |
| 2026-05-05 02:30 | 41.40848 | -71.78091 | 31698 ft | 399 kts | 225° |
| 2026-05-05 02:30 | 41.38727 | -71.80435 | 31286 ft | 395 kts | 225° |
| 2026-05-05 02:30 | 41.36624 | -71.82758 | 30866 ft | 391 kts | 225° |
| 2026-05-05 02:31 | 41.34545 | -71.85055 | 30434 ft | 387 kts | 225° |
| 2026-05-05 02:31 | 41.32481 | -71.87333 | 30014 ft | 383 kts | 225° |
| 2026-05-05 02:31 | 41.30439 | -71.89582 | 29531 ft | 380 kts | 225° |
| 2026-05-05 02:31 | 41.28408 | -71.91816 | 29079 ft | 377 kts | 225° |
| 2026-05-05 02:32 | 41.26401 | -71.94022 | 28639 ft | 373 kts | 225° |
| 2026-05-05 02:32 | 41.24409 | -71.96208 | 28214 ft | 370 kts | 225° |
| 2026-05-05 02:32 | 41.22433 | -71.98375 | 27786 ft | 367 kts | 225° |
| 2026-05-05 02:32 | 41.20474 | -72.00524 | 27372 ft | 364 kts | 225° |
| 2026-05-05 02:33 | 41.18528 | -72.02658 | 26947 ft | 362 kts | 224° |
| 2026-05-05 02:33 | 41.16594 | -72.04778 | 26559 ft | 359 kts | 224° |
| 2026-05-05 02:33 | 41.14669 | -72.06885 | 26165 ft | 358 kts | 224° |
| 2026-05-05 02:33 | 41.12754 | -72.08977 | 25771 ft | 356 kts | 224° |
| 2026-05-05 02:34 | 41.10996 | -72.11218 | 25383 ft | 347 kts | 236° |
| 2026-05-05 02:34 | 41.09663 | -72.13846 | 25000 ft | 341 kts | 245° |
| 2026-05-05 02:34 | 41.08708 | -72.16692 | 24601 ft | 337 kts | 254° |
| 2026-05-05 02:34 | 41.07977 | -72.19630 | 24222 ft | 335 kts | 255° |
| 2026-05-05 02:35 | 41.07266 | -72.22569 | 23830 ft | 335 kts | 255° |
| 2026-05-05 02:35 | 41.06556 | -72.25511 | 23412 ft | 335 kts | 255° |
| 2026-05-05 02:35 | 41.05851 | -72.28413 | 22987 ft | 335 kts | 255° |
| 2026-05-05 02:35 | 41.05133 | -72.31346 | 22559 ft | 334 kts | 255° |
| 2026-05-05 02:36 | 41.04414 | -72.34259 | 22142 ft | 332 kts | 255° |
| 2026-05-05 02:36 | 41.03697 | -72.37152 | 21693 ft | 329 kts | 255° |
| 2026-05-05 02:36 | 41.02985 | -72.40014 | 21261 ft | 326 kts | 254° |
| 2026-05-05 02:36 | 41.02277 | -72.42854 | 20864 ft | 323 kts | 254° |
| 2026-05-05 02:37 | 41.01574 | -72.45672 | 20451 ft | 321 kts | 254° |
| 2026-05-05 02:37 | 41.00876 | -72.48462 | 20065 ft | 318 kts | 254° |
| 2026-05-05 02:37 | 41.00182 | -72.51231 | 19668 ft | 316 kts | 254° |
| 2026-05-05 02:37 | 40.99495 | -72.53976 | 19282 ft | 313 kts | 254° |
| 2026-05-05 02:38 | 40.98810 | -72.56704 | 18901 ft | 311 kts | 254° |
| 2026-05-05 02:38 | 40.98130 | -72.59407 | 18523 ft | 309 kts | 254° |
| 2026-05-05 02:38 | 40.97456 | -72.62089 | 18127 ft | 306 kts | 253° |
| 2026-05-05 02:38 | 40.96785 | -72.64754 | 17702 ft | 304 kts | 253° |
| 2026-05-05 02:39 | 40.96117 | -72.67404 | 17279 ft | 302 kts | 253° |
| 2026-05-05 02:39 | 40.95455 | -72.70029 | 16858 ft | 300 kts | 253° |
| 2026-05-05 02:39 | 40.94795 | -72.72640 | 16453 ft | 298 kts | 253° |
| 2026-05-05 02:39 | 40.94140 | -72.75228 | 16039 ft | 296 kts | 253° |
| 2026-05-05 02:40 | 40.93476 | -72.77783 | 15625 ft | 290 kts | 250° |
| 2026-05-05 02:40 | 40.92430 | -72.80066 | 15223 ft | 293 kts | 234° |
| 2026-05-05 02:40 | 40.90956 | -72.81936 | 14828 ft | 296 kts | 221° |
| 2026-05-05 02:40 | 40.89294 | -72.83533 | 14448 ft | 295 kts | 220° |
| 2026-05-05 02:41 | 40.87621 | -72.85102 | 14068 ft | 295 kts | 220° |
| 2026-05-05 02:41 | 40.85952 | -72.86669 | 13693 ft | 294 kts | 220° |
| 2026-05-05 02:41 | 40.84292 | -72.88237 | 13261 ft | 293 kts | 220° |
| 2026-05-05 02:41 | 40.82637 | -72.89809 | 12828 ft | 292 kts | 220° |
| 2026-05-05 02:42 | 40.80993 | -72.91375 | 12426 ft | 291 kts | 220° |
| 2026-05-05 02:42 | 40.79355 | -72.92937 | 12046 ft | 290 kts | 220° |
| 2026-05-05 02:42 | 40.77725 | -72.94497 | 11677 ft | 288 kts | 219° |
| 2026-05-05 02:42 | 40.76111 | -72.96037 | 11309 ft | 286 kts | 219° |
| 2026-05-05 02:43 | 40.74508 | -72.97569 | 10945 ft | 283 kts | 219° |
| 2026-05-05 02:43 | 40.72915 | -72.99091 | 10617 ft | 282 kts | 219° |
| 2026-05-05 02:43 | 40.71333 | -73.00599 | 10266 ft | 280 kts | 219° |
| 2026-05-05 02:43 | 40.69807 | -73.02145 | 9907 ft | 271 kts | 229° |
| 2026-05-05 02:44 | 40.68839 | -73.04222 | 9567 ft | 268 kts | 253° |
| 2026-05-05 02:44 | 40.68514 | -73.06629 | 9235 ft | 269 kts | 269° |
| 2026-05-05 02:44 | 40.68522 | -73.09092 | 8881 ft | 269 kts | 271° |
| 2026-05-05 02:44 | 40.68550 | -73.11546 | 8558 ft | 266 kts | 271° |
| 2026-05-05 02:45 | 40.68608 | -73.13952 | 8213 ft | 258 kts | 277° |
| 2026-05-05 02:45 | 40.69227 | -73.16151 | 7902 ft | 259 kts | 300° |
| 2026-05-05 02:45 | 40.70306 | -73.18060 | 7647 ft | 262 kts | 306° |
| 2026-05-05 02:45 | 40.71468 | -73.19927 | 7393 ft | 265 kts | 306° |
| 2026-05-05 02:46 | 40.72657 | -73.21797 | 7132 ft | 267 kts | 307° |
| 2026-05-05 02:46 | 40.73847 | -73.23673 | 6940 ft | 265 kts | 307° |
| 2026-05-05 02:46 | 40.75027 | -73.25509 | 6693 ft | 260 kts | 307° |
| 2026-05-05 02:46 | 40.76191 | -73.27303 | 6469 ft | 255 kts | 307° |
| 2026-05-05 02:47 | 40.77261 | -73.29105 | 6147 ft | 244 kts | 294° |
| 2026-05-05 02:47 | 40.77591 | -73.31262 | 5654 ft | 239 kts | 266° |
| 2026-05-05 02:47 | 40.77516 | -73.33456 | 5205 ft | 241 kts | 268° |
| 2026-05-05 02:47 | 40.77543 | -73.35624 | 5202 ft | 233 kts | 270° |
| 2026-05-05 02:48 | 40.77625 | -73.37755 | 5054 ft | 233 kts | 271° |
| 2026-05-05 02:48 | 40.77743 | -73.39888 | 4854 ft | 232 kts | 272° |
| 2026-05-05 02:48 | 40.77881 | -73.42003 | 4653 ft | 231 kts | 273° |
| 2026-05-05 02:48 | 40.78036 | -73.44080 | 4434 ft | 230 kts | 273° |
| 2026-05-05 02:49 | 40.78205 | -73.46191 | 4223 ft | 228 kts | 273° |
| 2026-05-05 02:49 | 40.78379 | -73.48263 | 3986 ft | 226 kts | 273° |
| 2026-05-05 02:49 | 40.78556 | -73.50313 | 3785 ft | 224 kts | 273° |
| 2026-05-05 02:49 | 40.78732 | -73.52342 | 3573 ft | 221 kts | 273° |
| 2026-05-05 02:50 | 40.78907 | -73.54346 | 3381 ft | 218 kts | 273° |
| 2026-05-05 02:50 | 40.79083 | -73.56315 | 3159 ft | 215 kts | 273° |
| 2026-05-05 02:50 | 40.79254 | -73.58252 | 3002 ft | 208 kts | 272° |
| 2026-05-05 02:50 | 40.79419 | -73.60115 | 2759 ft | 198 kts | 272° |
| 2026-05-05 02:51 | 40.79516 | -73.61849 | 2539 ft | 179 kts | 258° |
| 2026-05-05 02:51 | 40.78979 | -73.63196 | 2363 ft | 165 kts | 225° |
| 2026-05-05 02:51 | 40.78147 | -73.64207 | 2360 ft | 165 kts | 222° |
| 2026-05-05 02:51 | 40.77261 | -73.65145 | 2196 ft | 159 kts | 218° |
| 2026-05-05 02:52 | 40.76416 | -73.66004 | 2054 ft | 148 kts | 217° |
| 2026-05-05 02:52 | 40.75579 | -73.66761 | 1959 ft | 143 kts | 214° |
| 2026-05-05 02:52 | 40.74748 | -73.67445 | 1889 ft | 141 kts | 212° |
| 2026-05-05 02:52 | 40.73926 | -73.68106 | 1838 ft | 138 kts | 212° |
| 2026-05-05 02:53 | 40.73098 | -73.68756 | 1797 ft | 138 kts | 212° |
| 2026-05-05 02:53 | 40.72271 | -73.69405 | 1782 ft | 139 kts | 212° |
| 2026-05-05 02:53 | 40.71474 | -73.70034 | 1611 ft | 125 kts | 212° |
| 2026-05-05 02:53 | 40.70757 | -73.70600 | 1418 ft | 114 kts | 211° |
| 2026-05-05 02:54 | 40.70090 | -73.71120 | 1292 ft | 112 kts | 210° |
| 2026-05-05 02:54 | 40.69423 | -73.71642 | 1139 ft | 109 kts | 211° |
| 2026-05-05 02:54 | 40.68767 | -73.72162 | 999 ft | 112 kts | 210° |
| 2026-05-05 02:54 | 40.68089 | -73.72699 | 835 ft | 116 kts | 210° |
| 2026-05-05 02:55 | 40.67391 | -73.73244 | 698 ft | 118 kts | 209° |
| 2026-05-05 02:55 | 40.66676 | -73.73803 | 522 ft | 119 kts | 208° |
| 2026-05-05 02:55 | 40.65972 | -73.74357 | 362 ft | 117 kts | 209° |
| 2026-05-05 02:55 | 40.65276 | -73.74906 | 233 ft | 116 kts | 208° |
| 2026-05-05 02:56 | 40.64572 | -73.75453 | 102 ft | 118 kts | 209° |
| 2026-05-05 02:56 | 40.63888 | -73.76003 | 32 ft | 108 kts | 210° |
| 2026-05-05 02:56 | 40.63347 | -73.76406 | 26 ft | 65 kts | 211° |
| 2026-05-05 02:56 | 40.63078 | -73.76624 | 28 ft | 31 kts | 221° |
| 2026-05-05 02:57 | 40.62996 | -73.76746 | 28 ft | 17 kts | 235° |
| 2026-05-05 02:57 | 40.62945 | -73.76854 | 31 ft | 10 kts | 241° |
| 2026-05-05 02:57 | 40.62926 | -73.76937 | 29 ft | 7 kts | 270° |
| 2026-05-05 02:57 | 40.62935 | -73.76980 | 32 ft | 5 kts | 289° |
| 2026-05-05 02:58 | 40.62971 | -73.77062 | 26 ft | 16 kts | 301° |
| 2026-05-05 02:58 | 40.63026 | -73.77184 | 31 ft | 16 kts | 301° |
| 2026-05-05 02:58 | 40.63081 | -73.77306 | 32 ft | 16 kts | 301° |
| 2026-05-05 02:58 | 40.63136 | -73.77428 | 33 ft | 16 kts | 301° |
| 2026-05-05 02:59 | 40.63175 | -73.77513 | 34 ft | 7 kts | 301° |
| 2026-05-05 02:59 | 40.63200 | -73.77568 | 34 ft | 6 kts | 300° |
| 2026-05-05 02:59 | 40.63204 | -73.77578 | 34 ft | 0 kts | 300° |
| 2026-05-05 02:59 | 40.63205 | -73.77580 | 34 ft | 0 kts | 300° |
| 2026-05-05 03:00 | 40.63210 | -73.77591 | 34 ft | 7 kts | 300° |
| 2026-05-05 03:00 | 40.63259 | -73.77701 | 32 ft | 17 kts | 301° |
| 2026-05-05 03:01 | 40.63321 | -73.77835 | 31 ft | 17 kts | 301° |
| 2026-05-05 03:01 | 40.63381 | -73.77974 | 28 ft | 18 kts | 299° |
| 2026-05-05 03:01 | 40.63444 | -73.78118 | 29 ft | 18 kts | 301° |
| 2026-05-05 03:01 | 40.63509 | -73.78261 | 29 ft | 18 kts | 300° |
| 2026-05-05 03:02 | 40.63573 | -73.78403 | 33 ft | 18 kts | 301° |
| 2026-05-05 03:02 | 40.63638 | -73.78546 | 33 ft | 18 kts | 301° |
| 2026-05-05 03:02 | 40.63703 | -73.78689 | 33 ft | 18 kts | 300° |
| 2026-05-05 03:02 | 40.63768 | -73.78833 | 32 ft | 19 kts | 301° |
| 2026-05-05 03:03 | 40.63838 | -73.78987 | 28 ft | 20 kts | 301° |
| 2026-05-05 03:03 | 40.63910 | -73.79146 | 31 ft | 20 kts | 301° |
| 2026-05-05 03:03 | 40.63982 | -73.79303 | 28 ft | 20 kts | 301° |
| 2026-05-05 03:03 | 40.64056 | -73.79459 | 27 ft | 20 kts | 311° |
| 2026-05-05 03:04 | 40.64186 | -73.79505 | 29 ft | 20 kts | 2° |
| 2026-05-05 03:04 | 40.64325 | -73.79493 | 29 ft | 20 kts | 4° |
| 2026-05-05 03:04 | 40.64462 | -73.79497 | 28 ft | 18 kts | 355° |
| 2026-05-05 03:04 | 40.64588 | -73.79522 | 28 ft | 18 kts | 340° |
| 2026-05-05 03:05 | 40.64696 | -73.79613 | 28 ft | 18 kts | 324° |
| 2026-05-05 03:05 | 40.64806 | -73.79700 | 28 ft | 18 kts | 345° |
| 2026-05-05 03:05 | 40.64934 | -73.79704 | 28 ft | 18 kts | 1° |
| 2026-05-05 03:05 | 40.65053 | -73.79656 | 28 ft | 18 kts | 45° |
| 2026-05-05 03:06 | 40.65120 | -73.79512 | 28 ft | 18 kts | 60° |
| 2026-05-05 03:06 | 40.65182 | -73.79365 | 28 ft | 18 kts | 61° |
| 2026-05-05 03:06 | 40.65204 | -73.79205 | 28 ft | 18 kts | 105° |
| 2026-05-05 03:06 | 40.65165 | -73.79044 | 28 ft | 18 kts | 108° |
| 2026-05-05 03:07 | 40.65139 | -73.78936 | 28 ft | 10 kts | 117° |
| 2026-05-05 03:07 | 40.65076 | -73.78915 | 28 ft | 10 kts | 181° |
| 2026-05-05 03:07 | 40.65016 | -73.78886 | 28 ft | 10 kts | 142° |
| 2026-05-05 03:07 | 40.64953 | -73.78851 | 28 ft | 10 kts | 163° |
| 2026-05-05 03:08 | 40.64898 | -73.78830 | 28 ft | 6 kts | 168° |
| 2026-05-05 03:08 | 40.64866 | -73.78855 | 28 ft | 6 kts | 239° |
| 2026-05-05 03:08 | 40.64854 | -73.78887 | 28 ft | 2 kts | 244° |
| 2026-05-05 03:08 | 40.64853 | -73.78888 | 28 ft | 0 kts | 244° |
| 2026-05-05 03:09 | 40.64853 | -73.78889 | 28 ft | 0 kts | 244° |